<?xml version="1.0" encoding="UTF-8" standalone="no" ?>
<gpx xmlns="http://www.topografix.com/GPX/1/1" xmlns:xsi="http://www.w3.org/2001/XMLSchema-instance" xsi:schemaLocation="http://www.topografix.com/GPX/1/1 http://www.topografix.com/GPX/1/1/gpx.xsd" version="1.1" creator="VisuGPX - https://www.visugpx.com">
  <metadata>
    <name>Le Hourdel_13km</name>
    <desc><![CDATA[Walkmeter Randonnée 13 oct. 2013 09:10:20]]></desc>
  </metadata>
  <trk>
    <name><![CDATA[ch en s _ le hourdel]]></name>
    <trkseg>
      <trkpt lat="50.21496" lon="1.56669">
        <ele>6.6</ele>
        <time>2013-10-13T07:11:06Z</time>
      </trkpt>
      <trkpt lat="50.21481" lon="1.56671">
        <ele>6.1</ele>
        <time>2013-10-13T07:11:16Z</time>
      </trkpt>
      <trkpt lat="50.21477" lon="1.56664">
        <ele>5.7</ele>
        <time>2013-10-13T07:11:24Z</time>
      </trkpt>
      <trkpt lat="50.21491" lon="1.56651">
        <ele>5.2</ele>
        <time>2013-10-13T07:11:35Z</time>
      </trkpt>
      <trkpt lat="50.21503" lon="1.56639">
        <ele>5</ele>
        <time>2013-10-13T07:11:41Z</time>
      </trkpt>
      <trkpt lat="50.21513" lon="1.56623">
        <ele>4.6</ele>
        <time>2013-10-13T07:11:50Z</time>
      </trkpt>
      <trkpt lat="50.21523" lon="1.56609">
        <ele>4.2</ele>
        <time>2013-10-13T07:11:59Z</time>
      </trkpt>
      <trkpt lat="50.21534" lon="1.56592">
        <ele>3.8</ele>
        <time>2013-10-13T07:12:08Z</time>
      </trkpt>
      <trkpt lat="50.21548" lon="1.56588">
        <ele>3.5</ele>
        <time>2013-10-13T07:12:15Z</time>
      </trkpt>
      <trkpt lat="50.21562" lon="1.56581">
        <ele>3.7</ele>
        <time>2013-10-13T07:12:30Z</time>
      </trkpt>
      <trkpt lat="50.21575" lon="1.56582">
        <ele>5.4</ele>
        <time>2013-10-13T07:12:38Z</time>
      </trkpt>
      <trkpt lat="50.21589" lon="1.56582">
        <ele>7.8</ele>
        <time>2013-10-13T07:13:00Z</time>
      </trkpt>
      <trkpt lat="50.21603" lon="1.5658">
        <ele>8.1</ele>
        <time>2013-10-13T07:13:08Z</time>
      </trkpt>
      <trkpt lat="50.21615" lon="1.56569">
        <ele>8.7</ele>
        <time>2013-10-13T07:13:20Z</time>
      </trkpt>
      <trkpt lat="50.21629" lon="1.56565">
        <ele>9.5</ele>
        <time>2013-10-13T07:13:36Z</time>
      </trkpt>
      <trkpt lat="50.21643" lon="1.56565">
        <ele>9</ele>
        <time>2013-10-13T07:13:58Z</time>
      </trkpt>
      <trkpt lat="50.21653" lon="1.56582">
        <ele>8.3</ele>
        <time>2013-10-13T07:14:06Z</time>
      </trkpt>
      <trkpt lat="50.21652" lon="1.56604">
        <ele>7.9</ele>
        <time>2013-10-13T07:14:12Z</time>
      </trkpt>
      <trkpt lat="50.21649" lon="1.56627">
        <ele>7.2</ele>
        <time>2013-10-13T07:14:21Z</time>
      </trkpt>
      <trkpt lat="50.21659" lon="1.56643">
        <ele>3.7</ele>
        <time>2013-10-13T07:14:39Z</time>
      </trkpt>
      <trkpt lat="50.21672" lon="1.56649">
        <ele>5.3</ele>
        <time>2013-10-13T07:14:51Z</time>
      </trkpt>
      <trkpt lat="50.21686" lon="1.56645">
        <ele>6.1</ele>
        <time>2013-10-13T07:15:01Z</time>
      </trkpt>
      <trkpt lat="50.21699" lon="1.56638">
        <ele>6.3</ele>
        <time>2013-10-13T07:15:11Z</time>
      </trkpt>
      <trkpt lat="50.21694" lon="1.56632">
        <ele>6.5</ele>
        <time>2013-10-13T07:15:17Z</time>
      </trkpt>
      <trkpt lat="50.21699" lon="1.5661">
        <ele>6.6</ele>
        <time>2013-10-13T07:15:26Z</time>
      </trkpt>
      <trkpt lat="50.21696" lon="1.5659">
        <ele>6.9</ele>
        <time>2013-10-13T07:15:36Z</time>
      </trkpt>
      <trkpt lat="50.21695" lon="1.56567">
        <ele>7.2</ele>
        <time>2013-10-13T07:15:52Z</time>
      </trkpt>
      <trkpt lat="50.21691" lon="1.56546">
        <ele>7.4</ele>
        <time>2013-10-13T07:16:03Z</time>
      </trkpt>
      <trkpt lat="50.21681" lon="1.56531">
        <ele>7.6</ele>
        <time>2013-10-13T07:16:10Z</time>
      </trkpt>
      <trkpt lat="50.21666" lon="1.56525">
        <ele>7.8</ele>
        <time>2013-10-13T07:16:21Z</time>
      </trkpt>
      <trkpt lat="50.21651" lon="1.56533">
        <ele>8</ele>
        <time>2013-10-13T07:16:29Z</time>
      </trkpt>
      <trkpt lat="50.21639" lon="1.56545">
        <ele>8.2</ele>
        <time>2013-10-13T07:16:37Z</time>
      </trkpt>
      <trkpt lat="50.21626" lon="1.56555">
        <ele>8.3</ele>
        <time>2013-10-13T07:16:44Z</time>
      </trkpt>
      <trkpt lat="50.21611" lon="1.56555">
        <ele>8.5</ele>
        <time>2013-10-13T07:16:54Z</time>
      </trkpt>
      <trkpt lat="50.21598" lon="1.56547">
        <ele>8.8</ele>
        <time>2013-10-13T07:17:07Z</time>
      </trkpt>
      <trkpt lat="50.21596" lon="1.56525">
        <ele>8.4</ele>
        <time>2013-10-13T07:17:19Z</time>
      </trkpt>
      <trkpt lat="50.21597" lon="1.56502">
        <ele>7.1</ele>
        <time>2013-10-13T07:17:26Z</time>
      </trkpt>
      <trkpt lat="50.216" lon="1.56483">
        <ele>6.2</ele>
        <time>2013-10-13T07:17:35Z</time>
      </trkpt>
      <trkpt lat="50.21612" lon="1.56472">
        <ele>7.4</ele>
        <time>2013-10-13T07:17:50Z</time>
      </trkpt>
      <trkpt lat="50.21618" lon="1.56452">
        <ele>8.3</ele>
        <time>2013-10-13T07:18:02Z</time>
      </trkpt>
      <trkpt lat="50.21627" lon="1.56421">
        <ele>8.9</ele>
        <time>2013-10-13T07:18:11Z</time>
      </trkpt>
      <trkpt lat="50.2162" lon="1.56401">
        <ele>9.9</ele>
        <time>2013-10-13T07:18:29Z</time>
      </trkpt>
      <trkpt lat="50.21618" lon="1.56383">
        <ele>9.2</ele>
        <time>2013-10-13T07:18:48Z</time>
      </trkpt>
      <trkpt lat="50.21617" lon="1.56361">
        <ele>8.7</ele>
        <time>2013-10-13T07:19:01Z</time>
      </trkpt>
      <trkpt lat="50.21616" lon="1.5634">
        <ele>8.5</ele>
        <time>2013-10-13T07:19:07Z</time>
      </trkpt>
      <trkpt lat="50.21617" lon="1.56318">
        <ele>8.2</ele>
        <time>2013-10-13T07:19:16Z</time>
      </trkpt>
      <trkpt lat="50.21614" lon="1.56296">
        <ele>7.6</ele>
        <time>2013-10-13T07:19:32Z</time>
      </trkpt>
      <trkpt lat="50.21612" lon="1.56273">
        <ele>7.1</ele>
        <time>2013-10-13T07:19:45Z</time>
      </trkpt>
      <trkpt lat="50.2162" lon="1.56255">
        <ele>7.3</ele>
        <time>2013-10-13T07:19:51Z</time>
      </trkpt>
      <trkpt lat="50.21623" lon="1.56234">
        <ele>8.2</ele>
        <time>2013-10-13T07:19:58Z</time>
      </trkpt>
      <trkpt lat="50.21625" lon="1.5622">
        <ele>8.8</ele>
        <time>2013-10-13T07:20:03Z</time>
      </trkpt>
      <trkpt lat="50.21614" lon="1.56204">
        <ele>9.6</ele>
        <time>2013-10-13T07:20:14Z</time>
      </trkpt>
      <trkpt lat="50.2161" lon="1.56198">
        <ele>8.4</ele>
        <time>2013-10-13T07:20:21Z</time>
      </trkpt>
      <trkpt lat="50.21611" lon="1.56176">
        <ele>7</ele>
        <time>2013-10-13T07:20:29Z</time>
      </trkpt>
      <trkpt lat="50.21611" lon="1.56155">
        <ele>5.4</ele>
        <time>2013-10-13T07:20:38Z</time>
      </trkpt>
      <trkpt lat="50.21617" lon="1.56133">
        <ele>4.2</ele>
        <time>2013-10-13T07:20:47Z</time>
      </trkpt>
      <trkpt lat="50.21618" lon="1.56112">
        <ele>5.5</ele>
        <time>2013-10-13T07:20:54Z</time>
      </trkpt>
      <trkpt lat="50.21624" lon="1.56092">
        <ele>7.5</ele>
        <time>2013-10-13T07:21:05Z</time>
      </trkpt>
      <trkpt lat="50.21628" lon="1.56078">
        <ele>7.8</ele>
        <time>2013-10-13T07:21:11Z</time>
      </trkpt>
      <trkpt lat="50.21613" lon="1.56082">
        <ele>7.2</ele>
        <time>2013-10-13T07:21:21Z</time>
      </trkpt>
      <trkpt lat="50.216" lon="1.56091">
        <ele>6.9</ele>
        <time>2013-10-13T07:21:27Z</time>
      </trkpt>
      <trkpt lat="50.21593" lon="1.56073">
        <ele>5.8</ele>
        <time>2013-10-13T07:21:45Z</time>
      </trkpt>
      <trkpt lat="50.21581" lon="1.5606">
        <ele>5.2</ele>
        <time>2013-10-13T07:21:56Z</time>
      </trkpt>
      <trkpt lat="50.21577" lon="1.56039">
        <ele>4.5</ele>
        <time>2013-10-13T07:22:08Z</time>
      </trkpt>
      <trkpt lat="50.21579" lon="1.56017">
        <ele>4</ele>
        <time>2013-10-13T07:22:16Z</time>
      </trkpt>
      <trkpt lat="50.21579" lon="1.55995">
        <ele>3.4</ele>
        <time>2013-10-13T07:22:27Z</time>
      </trkpt>
      <trkpt lat="50.21582" lon="1.55974">
        <ele>2.6</ele>
        <time>2013-10-13T07:22:39Z</time>
      </trkpt>
      <trkpt lat="50.2158" lon="1.55953">
        <ele>2.2</ele>
        <time>2013-10-13T07:22:47Z</time>
      </trkpt>
      <trkpt lat="50.21571" lon="1.55936">
        <ele>1.6</ele>
        <time>2013-10-13T07:22:57Z</time>
      </trkpt>
      <trkpt lat="50.21573" lon="1.55914">
        <ele>0.9</ele>
        <time>2013-10-13T07:23:11Z</time>
      </trkpt>
      <trkpt lat="50.21576" lon="1.55892">
        <ele>0.5</ele>
        <time>2013-10-13T07:23:24Z</time>
      </trkpt>
      <trkpt lat="50.21576" lon="1.55869">
        <ele>0.1</ele>
        <time>2013-10-13T07:23:37Z</time>
      </trkpt>
      <trkpt lat="50.21567" lon="1.5585">
        <ele>-0.2</ele>
        <time>2013-10-13T07:23:46Z</time>
      </trkpt>
      <trkpt lat="50.21559" lon="1.55831">
        <ele>-0.5</ele>
        <time>2013-10-13T07:23:54Z</time>
      </trkpt>
      <trkpt lat="50.21556" lon="1.5581">
        <ele>-0.8</ele>
        <time>2013-10-13T07:24:04Z</time>
      </trkpt>
      <trkpt lat="50.2156" lon="1.55788">
        <ele>-1.1</ele>
        <time>2013-10-13T07:24:14Z</time>
      </trkpt>
      <trkpt lat="50.21559" lon="1.55766">
        <ele>-1.4</ele>
        <time>2013-10-13T07:24:23Z</time>
      </trkpt>
      <trkpt lat="50.21545" lon="1.55765">
        <ele>-1.7</ele>
        <time>2013-10-13T07:24:33Z</time>
      </trkpt>
      <trkpt lat="50.21539" lon="1.55751">
        <ele>-1.9</ele>
        <time>2013-10-13T07:24:38Z</time>
      </trkpt>
      <trkpt lat="50.21538" lon="1.55732">
        <ele>-2</ele>
        <time>2013-10-13T07:24:41Z</time>
      </trkpt>
      <trkpt lat="50.21549" lon="1.5572">
        <ele>-1.7</ele>
        <time>2013-10-13T07:24:46Z</time>
      </trkpt>
      <trkpt lat="50.21562" lon="1.55728">
        <ele>-1</ele>
        <time>2013-10-13T07:24:57Z</time>
      </trkpt>
      <trkpt lat="50.21574" lon="1.55713">
        <ele>-0.3</ele>
        <time>2013-10-13T07:25:07Z</time>
      </trkpt>
      <trkpt lat="50.21588" lon="1.55681">
        <ele>3</ele>
        <time>2013-10-13T07:25:20Z</time>
      </trkpt>
      <trkpt lat="50.21588" lon="1.55681">
        <ele>3</ele>
        <time>2013-10-13T07:26:20Z</time>
      </trkpt>
      <trkpt lat="50.21592" lon="1.55665">
        <ele>5.7</ele>
        <time>2013-10-13T07:26:21Z</time>
      </trkpt>
      <trkpt lat="50.21584" lon="1.55637">
        <ele>7.3</ele>
        <time>2013-10-13T07:26:49Z</time>
      </trkpt>
      <trkpt lat="50.21584" lon="1.55637">
        <ele>7.3</ele>
        <time>2013-10-13T07:28:06Z</time>
      </trkpt>
      <trkpt lat="50.21578" lon="1.55613">
        <ele>9.1</ele>
        <time>2013-10-13T07:28:09Z</time>
      </trkpt>
      <trkpt lat="50.21578" lon="1.55622">
        <ele>8.8</ele>
        <time>2013-10-13T07:28:13Z</time>
      </trkpt>
      <trkpt lat="50.21568" lon="1.55612">
        <ele>5.3</ele>
        <time>2013-10-13T07:28:33Z</time>
      </trkpt>
      <trkpt lat="50.21568" lon="1.55612">
        <ele>5.3</ele>
        <time>2013-10-13T07:29:23Z</time>
      </trkpt>
      <trkpt lat="50.21572" lon="1.55609">
        <ele>2.2</ele>
        <time>2013-10-13T07:29:28Z</time>
      </trkpt>
      <trkpt lat="50.21567" lon="1.55588">
        <ele>1.3</ele>
        <time>2013-10-13T07:29:41Z</time>
      </trkpt>
      <trkpt lat="50.21554" lon="1.55569">
        <ele>-1.5</ele>
        <time>2013-10-13T07:30:04Z</time>
      </trkpt>
      <trkpt lat="50.21554" lon="1.55546">
        <ele>-2</ele>
        <time>2013-10-13T07:30:11Z</time>
      </trkpt>
      <trkpt lat="50.2155" lon="1.55525">
        <ele>-2.7</ele>
        <time>2013-10-13T07:30:22Z</time>
      </trkpt>
      <trkpt lat="50.21553" lon="1.55503">
        <ele>-3.8</ele>
        <time>2013-10-13T07:30:36Z</time>
      </trkpt>
      <trkpt lat="50.21557" lon="1.55481">
        <ele>-5</ele>
        <time>2013-10-13T07:30:51Z</time>
      </trkpt>
      <trkpt lat="50.21549" lon="1.55461">
        <ele>-1.5</ele>
        <time>2013-10-13T07:31:01Z</time>
      </trkpt>
      <trkpt lat="50.21539" lon="1.55447">
        <ele>1.1</ele>
        <time>2013-10-13T07:31:10Z</time>
      </trkpt>
      <trkpt lat="50.21528" lon="1.55434">
        <ele>1.3</ele>
        <time>2013-10-13T07:31:20Z</time>
      </trkpt>
      <trkpt lat="50.21529" lon="1.55411">
        <ele>1.6</ele>
        <time>2013-10-13T07:31:30Z</time>
      </trkpt>
      <trkpt lat="50.21531" lon="1.55389">
        <ele>1.8</ele>
        <time>2013-10-13T07:31:39Z</time>
      </trkpt>
      <trkpt lat="50.21538" lon="1.55368">
        <ele>2.2</ele>
        <time>2013-10-13T07:31:51Z</time>
      </trkpt>
      <trkpt lat="50.21537" lon="1.55347">
        <ele>2.5</ele>
        <time>2013-10-13T07:32:03Z</time>
      </trkpt>
      <trkpt lat="50.2153" lon="1.55327">
        <ele>2.8</ele>
        <time>2013-10-13T07:32:16Z</time>
      </trkpt>
      <trkpt lat="50.2153" lon="1.55305">
        <ele>3.3</ele>
        <time>2013-10-13T07:32:34Z</time>
      </trkpt>
      <trkpt lat="50.21532" lon="1.55284">
        <ele>3.8</ele>
        <time>2013-10-13T07:32:51Z</time>
      </trkpt>
      <trkpt lat="50.21534" lon="1.55247">
        <ele>9.2</ele>
        <time>2013-10-13T07:33:09Z</time>
      </trkpt>
      <trkpt lat="50.21534" lon="1.55247">
        <ele>9.2</ele>
        <time>2013-10-13T07:33:51Z</time>
      </trkpt>
      <trkpt lat="50.21537" lon="1.55232">
        <ele>14</ele>
        <time>2013-10-13T07:33:58Z</time>
      </trkpt>
      <trkpt lat="50.21552" lon="1.55223">
        <ele>14</ele>
        <time>2013-10-13T07:34:01Z</time>
      </trkpt>
      <trkpt lat="50.21559" lon="1.55221">
        <ele>14</ele>
        <time>2013-10-13T07:34:02Z</time>
      </trkpt>
      <trkpt lat="50.21589" lon="1.55231">
        <ele>14</ele>
        <time>2013-10-13T07:34:09Z</time>
      </trkpt>
      <trkpt lat="50.21584" lon="1.55232">
        <ele>14</ele>
        <time>2013-10-13T07:34:10Z</time>
      </trkpt>
      <trkpt lat="50.21584" lon="1.55237">
        <ele>14</ele>
        <time>2013-10-13T07:34:11Z</time>
      </trkpt>
      <trkpt lat="50.21571" lon="1.55241">
        <ele>14</ele>
        <time>2013-10-13T07:34:14Z</time>
      </trkpt>
      <trkpt lat="50.21571" lon="1.55243">
        <ele>14</ele>
        <time>2013-10-13T07:34:16Z</time>
      </trkpt>
      <trkpt lat="50.21557" lon="1.55243">
        <ele>9.7</ele>
        <time>2013-10-13T07:34:32Z</time>
      </trkpt>
      <trkpt lat="50.2154" lon="1.55233">
        <ele>8</ele>
        <time>2013-10-13T07:34:38Z</time>
      </trkpt>
      <trkpt lat="50.21526" lon="1.55228">
        <ele>5.9</ele>
        <time>2013-10-13T07:34:50Z</time>
      </trkpt>
      <trkpt lat="50.21528" lon="1.55212">
        <ele>8.5</ele>
        <time>2013-10-13T07:35:02Z</time>
      </trkpt>
      <trkpt lat="50.21513" lon="1.5522">
        <ele>9.6</ele>
        <time>2013-10-13T07:35:09Z</time>
      </trkpt>
      <trkpt lat="50.21507" lon="1.55239">
        <ele>9.2</ele>
        <time>2013-10-13T07:35:12Z</time>
      </trkpt>
      <trkpt lat="50.215" lon="1.5526">
        <ele>8.8</ele>
        <time>2013-10-13T07:35:16Z</time>
      </trkpt>
      <trkpt lat="50.21494" lon="1.55255">
        <ele>8.2</ele>
        <time>2013-10-13T07:35:21Z</time>
      </trkpt>
      <trkpt lat="50.21493" lon="1.55232">
        <ele>7.7</ele>
        <time>2013-10-13T07:35:26Z</time>
      </trkpt>
      <trkpt lat="50.21491" lon="1.5521">
        <ele>7</ele>
        <time>2013-10-13T07:35:32Z</time>
      </trkpt>
      <trkpt lat="50.21497" lon="1.5519">
        <ele>6.1</ele>
        <time>2013-10-13T07:35:40Z</time>
      </trkpt>
      <trkpt lat="50.215" lon="1.55168">
        <ele>5.2</ele>
        <time>2013-10-13T07:35:49Z</time>
      </trkpt>
      <trkpt lat="50.21499" lon="1.55145">
        <ele>4.1</ele>
        <time>2013-10-13T07:35:59Z</time>
      </trkpt>
      <trkpt lat="50.21495" lon="1.55124">
        <ele>1.8</ele>
        <time>2013-10-13T07:36:14Z</time>
      </trkpt>
      <trkpt lat="50.21492" lon="1.55101">
        <ele>1.3</ele>
        <time>2013-10-13T07:36:23Z</time>
      </trkpt>
      <trkpt lat="50.21488" lon="1.55079">
        <ele>1.2</ele>
        <time>2013-10-13T07:36:32Z</time>
      </trkpt>
      <trkpt lat="50.21484" lon="1.55059">
        <ele>1.5</ele>
        <time>2013-10-13T07:36:41Z</time>
      </trkpt>
      <trkpt lat="50.21481" lon="1.55038">
        <ele>1.8</ele>
        <time>2013-10-13T07:36:49Z</time>
      </trkpt>
      <trkpt lat="50.21474" lon="1.55019">
        <ele>2.2</ele>
        <time>2013-10-13T07:37:00Z</time>
      </trkpt>
      <trkpt lat="50.2147" lon="1.54998">
        <ele>2.6</ele>
        <time>2013-10-13T07:37:09Z</time>
      </trkpt>
      <trkpt lat="50.21467" lon="1.54976">
        <ele>2.9</ele>
        <time>2013-10-13T07:37:18Z</time>
      </trkpt>
      <trkpt lat="50.2146" lon="1.54956">
        <ele>3.5</ele>
        <time>2013-10-13T07:37:32Z</time>
      </trkpt>
      <trkpt lat="50.21455" lon="1.54935">
        <ele>3.8</ele>
        <time>2013-10-13T07:37:42Z</time>
      </trkpt>
      <trkpt lat="50.21452" lon="1.54912">
        <ele>3.6</ele>
        <time>2013-10-13T07:37:52Z</time>
      </trkpt>
      <trkpt lat="50.2145" lon="1.54891">
        <ele>2.7</ele>
        <time>2013-10-13T07:38:03Z</time>
      </trkpt>
      <trkpt lat="50.21449" lon="1.5487">
        <ele>2</ele>
        <time>2013-10-13T07:38:13Z</time>
      </trkpt>
      <trkpt lat="50.21441" lon="1.54852">
        <ele>1.3</ele>
        <time>2013-10-13T07:38:22Z</time>
      </trkpt>
      <trkpt lat="50.21435" lon="1.54832">
        <ele>1.2</ele>
        <time>2013-10-13T07:38:30Z</time>
      </trkpt>
      <trkpt lat="50.21429" lon="1.54812">
        <ele>1.8</ele>
        <time>2013-10-13T07:38:40Z</time>
      </trkpt>
      <trkpt lat="50.21422" lon="1.54793">
        <ele>2.4</ele>
        <time>2013-10-13T07:38:49Z</time>
      </trkpt>
      <trkpt lat="50.21417" lon="1.54773">
        <ele>3</ele>
        <time>2013-10-13T07:38:59Z</time>
      </trkpt>
      <trkpt lat="50.21416" lon="1.54752">
        <ele>3.6</ele>
        <time>2013-10-13T07:39:10Z</time>
      </trkpt>
      <trkpt lat="50.21416" lon="1.5473">
        <ele>3.7</ele>
        <time>2013-10-13T07:39:19Z</time>
      </trkpt>
      <trkpt lat="50.21411" lon="1.54709">
        <ele>2.8</ele>
        <time>2013-10-13T07:39:29Z</time>
      </trkpt>
      <trkpt lat="50.21402" lon="1.54692">
        <ele>1.5</ele>
        <time>2013-10-13T07:39:43Z</time>
      </trkpt>
      <trkpt lat="50.21401" lon="1.54671">
        <ele>1.2</ele>
        <time>2013-10-13T07:39:51Z</time>
      </trkpt>
      <trkpt lat="50.21398" lon="1.54648">
        <ele>2.4</ele>
        <time>2013-10-13T07:40:02Z</time>
      </trkpt>
      <trkpt lat="50.21391" lon="1.54629">
        <ele>3.6</ele>
        <time>2013-10-13T07:40:12Z</time>
      </trkpt>
      <trkpt lat="50.21387" lon="1.54607">
        <ele>4.6</ele>
        <time>2013-10-13T07:40:21Z</time>
      </trkpt>
      <trkpt lat="50.21387" lon="1.54585">
        <ele>5.6</ele>
        <time>2013-10-13T07:40:30Z</time>
      </trkpt>
      <trkpt lat="50.21382" lon="1.54565">
        <ele>5.8</ele>
        <time>2013-10-13T07:40:40Z</time>
      </trkpt>
      <trkpt lat="50.21379" lon="1.54542">
        <ele>5.6</ele>
        <time>2013-10-13T07:40:49Z</time>
      </trkpt>
      <trkpt lat="50.21375" lon="1.5452">
        <ele>5.4</ele>
        <time>2013-10-13T07:40:58Z</time>
      </trkpt>
      <trkpt lat="50.21367" lon="1.54501">
        <ele>5.1</ele>
        <time>2013-10-13T07:41:07Z</time>
      </trkpt>
      <trkpt lat="50.2136" lon="1.54481">
        <ele>4.8</ele>
        <time>2013-10-13T07:41:18Z</time>
      </trkpt>
      <trkpt lat="50.21352" lon="1.54464">
        <ele>4.5</ele>
        <time>2013-10-13T07:41:28Z</time>
      </trkpt>
      <trkpt lat="50.21344" lon="1.54447">
        <ele>4.3</ele>
        <time>2013-10-13T07:41:38Z</time>
      </trkpt>
      <trkpt lat="50.21341" lon="1.54425">
        <ele>4</ele>
        <time>2013-10-13T07:41:47Z</time>
      </trkpt>
      <trkpt lat="50.21335" lon="1.54405">
        <ele>3.8</ele>
        <time>2013-10-13T07:41:56Z</time>
      </trkpt>
      <trkpt lat="50.21327" lon="1.54391">
        <ele>3.4</ele>
        <time>2013-10-13T07:42:10Z</time>
      </trkpt>
      <trkpt lat="50.21332" lon="1.5437">
        <ele>3.1</ele>
        <time>2013-10-13T07:42:21Z</time>
      </trkpt>
      <trkpt lat="50.21336" lon="1.54349">
        <ele>4.1</ele>
        <time>2013-10-13T07:42:31Z</time>
      </trkpt>
      <trkpt lat="50.2133" lon="1.54329">
        <ele>5.7</ele>
        <time>2013-10-13T07:42:40Z</time>
      </trkpt>
      <trkpt lat="50.21325" lon="1.5431">
        <ele>6.9</ele>
        <time>2013-10-13T07:42:49Z</time>
      </trkpt>
      <trkpt lat="50.21319" lon="1.54291">
        <ele>6.3</ele>
        <time>2013-10-13T07:43:00Z</time>
      </trkpt>
      <trkpt lat="50.21311" lon="1.54273">
        <ele>5.8</ele>
        <time>2013-10-13T07:43:11Z</time>
      </trkpt>
      <trkpt lat="50.21306" lon="1.54253">
        <ele>5.2</ele>
        <time>2013-10-13T07:43:22Z</time>
      </trkpt>
      <trkpt lat="50.21303" lon="1.54231">
        <ele>4.7</ele>
        <time>2013-10-13T07:43:33Z</time>
      </trkpt>
      <trkpt lat="50.21303" lon="1.54209">
        <ele>4.1</ele>
        <time>2013-10-13T07:43:45Z</time>
      </trkpt>
      <trkpt lat="50.21297" lon="1.5419">
        <ele>3.6</ele>
        <time>2013-10-13T07:43:56Z</time>
      </trkpt>
      <trkpt lat="50.2129" lon="1.5417">
        <ele>3.2</ele>
        <time>2013-10-13T07:44:07Z</time>
      </trkpt>
      <trkpt lat="50.21285" lon="1.5415">
        <ele>2.9</ele>
        <time>2013-10-13T07:44:17Z</time>
      </trkpt>
      <trkpt lat="50.21278" lon="1.54131">
        <ele>2.6</ele>
        <time>2013-10-13T07:44:26Z</time>
      </trkpt>
      <trkpt lat="50.21273" lon="1.5411">
        <ele>2.2</ele>
        <time>2013-10-13T07:44:36Z</time>
      </trkpt>
      <trkpt lat="50.21269" lon="1.54089">
        <ele>1.9</ele>
        <time>2013-10-13T07:44:46Z</time>
      </trkpt>
      <trkpt lat="50.21262" lon="1.5407">
        <ele>1.6</ele>
        <time>2013-10-13T07:44:54Z</time>
      </trkpt>
      <trkpt lat="50.21254" lon="1.54051">
        <ele>1.2</ele>
        <time>2013-10-13T07:45:04Z</time>
      </trkpt>
      <trkpt lat="50.21248" lon="1.54031">
        <ele>0.8</ele>
        <time>2013-10-13T07:45:15Z</time>
      </trkpt>
      <trkpt lat="50.21239" lon="1.54013">
        <ele>0.5</ele>
        <time>2013-10-13T07:45:24Z</time>
      </trkpt>
      <trkpt lat="50.21234" lon="1.53992">
        <ele>5.1</ele>
        <time>2013-10-13T07:45:35Z</time>
      </trkpt>
      <trkpt lat="50.21226" lon="1.53973">
        <ele>-0.4</ele>
        <time>2013-10-13T07:45:45Z</time>
      </trkpt>
      <trkpt lat="50.21218" lon="1.53953">
        <ele>-0.8</ele>
        <time>2013-10-13T07:45:56Z</time>
      </trkpt>
      <trkpt lat="50.21208" lon="1.53937">
        <ele>-1.1</ele>
        <time>2013-10-13T07:46:04Z</time>
      </trkpt>
      <trkpt lat="50.21202" lon="1.53917">
        <ele>-1.5</ele>
        <time>2013-10-13T07:46:15Z</time>
      </trkpt>
      <trkpt lat="50.21193" lon="1.53899">
        <ele>-2</ele>
        <time>2013-10-13T07:46:26Z</time>
      </trkpt>
      <trkpt lat="50.21189" lon="1.53878">
        <ele>-1.9</ele>
        <time>2013-10-13T07:46:36Z</time>
      </trkpt>
      <trkpt lat="50.21184" lon="1.53857">
        <ele>-1.7</ele>
        <time>2013-10-13T07:46:47Z</time>
      </trkpt>
      <trkpt lat="50.21175" lon="1.53839">
        <ele>-1.6</ele>
        <time>2013-10-13T07:46:56Z</time>
      </trkpt>
      <trkpt lat="50.21163" lon="1.53828">
        <ele>-1.4</ele>
        <time>2013-10-13T07:47:11Z</time>
      </trkpt>
      <trkpt lat="50.21156" lon="1.53808">
        <ele>-1.3</ele>
        <time>2013-10-13T07:47:21Z</time>
      </trkpt>
      <trkpt lat="50.21157" lon="1.53787">
        <ele>-1.1</ele>
        <time>2013-10-13T07:47:30Z</time>
      </trkpt>
      <trkpt lat="50.21152" lon="1.53767">
        <ele>-1</ele>
        <time>2013-10-13T07:47:39Z</time>
      </trkpt>
      <trkpt lat="50.21144" lon="1.53748">
        <ele>-0.8</ele>
        <time>2013-10-13T07:47:51Z</time>
      </trkpt>
      <trkpt lat="50.21133" lon="1.53734">
        <ele>-0.7</ele>
        <time>2013-10-13T07:48:01Z</time>
      </trkpt>
      <trkpt lat="50.21123" lon="1.53717">
        <ele>-0.6</ele>
        <time>2013-10-13T07:48:10Z</time>
      </trkpt>
      <trkpt lat="50.21112" lon="1.53702">
        <ele>-0.5</ele>
        <time>2013-10-13T07:48:19Z</time>
      </trkpt>
      <trkpt lat="50.21103" lon="1.53683">
        <ele>-0.4</ele>
        <time>2013-10-13T07:48:26Z</time>
      </trkpt>
      <trkpt lat="50.21096" lon="1.53665">
        <ele>-0.2</ele>
        <time>2013-10-13T07:48:40Z</time>
      </trkpt>
      <trkpt lat="50.21092" lon="1.53643">
        <ele>4.9</ele>
        <time>2013-10-13T07:48:50Z</time>
      </trkpt>
      <trkpt lat="50.21085" lon="1.53625">
        <ele>0.1</ele>
        <time>2013-10-13T07:48:59Z</time>
      </trkpt>
      <trkpt lat="50.21074" lon="1.53611">
        <ele>0.2</ele>
        <time>2013-10-13T07:49:09Z</time>
      </trkpt>
      <trkpt lat="50.21067" lon="1.53591">
        <ele>0.4</ele>
        <time>2013-10-13T07:49:18Z</time>
      </trkpt>
      <trkpt lat="50.21056" lon="1.53579">
        <ele>0.5</ele>
        <time>2013-10-13T07:49:27Z</time>
      </trkpt>
      <trkpt lat="50.21052" lon="1.53558">
        <ele>0.6</ele>
        <time>2013-10-13T07:49:38Z</time>
      </trkpt>
      <trkpt lat="50.21046" lon="1.53537">
        <ele>0.7</ele>
        <time>2013-10-13T07:49:47Z</time>
      </trkpt>
      <trkpt lat="50.21042" lon="1.53516">
        <ele>0.9</ele>
        <time>2013-10-13T07:49:58Z</time>
      </trkpt>
      <trkpt lat="50.21029" lon="1.53508">
        <ele>0.9</ele>
        <time>2013-10-13T07:50:06Z</time>
      </trkpt>
      <trkpt lat="50.21018" lon="1.53495">
        <ele>-0.6</ele>
        <time>2013-10-13T07:50:14Z</time>
      </trkpt>
      <trkpt lat="50.21012" lon="1.53474">
        <ele>-1.7</ele>
        <time>2013-10-13T07:50:25Z</time>
      </trkpt>
      <trkpt lat="50.21011" lon="1.53452">
        <ele>-0.7</ele>
        <time>2013-10-13T07:50:34Z</time>
      </trkpt>
      <trkpt lat="50.21001" lon="1.53436">
        <ele>6.4</ele>
        <time>2013-10-13T07:50:41Z</time>
      </trkpt>
      <trkpt lat="50.20997" lon="1.53415">
        <ele>1.2</ele>
        <time>2013-10-13T07:50:52Z</time>
      </trkpt>
      <trkpt lat="50.2099" lon="1.53403">
        <ele>2.4</ele>
        <time>2013-10-13T07:51:04Z</time>
      </trkpt>
      <trkpt lat="50.20978" lon="1.53402">
        <ele>3</ele>
        <time>2013-10-13T07:51:10Z</time>
      </trkpt>
      <trkpt lat="50.20968" lon="1.53385">
        <ele>3.8</ele>
        <time>2013-10-13T07:51:18Z</time>
      </trkpt>
      <trkpt lat="50.20964" lon="1.53365">
        <ele>5.1</ele>
        <time>2013-10-13T07:51:31Z</time>
      </trkpt>
      <trkpt lat="50.20961" lon="1.53343">
        <ele>5.8</ele>
        <time>2013-10-13T07:51:39Z</time>
      </trkpt>
      <trkpt lat="50.20952" lon="1.53324">
        <ele>6.7</ele>
        <time>2013-10-13T07:51:48Z</time>
      </trkpt>
      <trkpt lat="50.20946" lon="1.53303">
        <ele>7.5</ele>
        <time>2013-10-13T07:51:56Z</time>
      </trkpt>
      <trkpt lat="50.20937" lon="1.53289">
        <ele>8.8</ele>
        <time>2013-10-13T07:52:09Z</time>
      </trkpt>
      <trkpt lat="50.20931" lon="1.53264">
        <ele>8.3</ele>
        <time>2013-10-13T07:52:15Z</time>
      </trkpt>
      <trkpt lat="50.20924" lon="1.53245">
        <ele>6.4</ele>
        <time>2013-10-13T07:52:26Z</time>
      </trkpt>
      <trkpt lat="50.20921" lon="1.53224">
        <ele>3.3</ele>
        <time>2013-10-13T07:52:37Z</time>
      </trkpt>
      <trkpt lat="50.2091" lon="1.5321">
        <ele>3.7</ele>
        <time>2013-10-13T07:52:47Z</time>
      </trkpt>
      <trkpt lat="50.20903" lon="1.5319">
        <ele>4.5</ele>
        <time>2013-10-13T07:52:58Z</time>
      </trkpt>
      <trkpt lat="50.20896" lon="1.53171">
        <ele>5.3</ele>
        <time>2013-10-13T07:53:08Z</time>
      </trkpt>
      <trkpt lat="50.20889" lon="1.53153">
        <ele>6.1</ele>
        <time>2013-10-13T07:53:18Z</time>
      </trkpt>
      <trkpt lat="50.20884" lon="1.53132">
        <ele>6.8</ele>
        <time>2013-10-13T07:53:29Z</time>
      </trkpt>
      <trkpt lat="50.20875" lon="1.53117">
        <ele>7.5</ele>
        <time>2013-10-13T07:53:39Z</time>
      </trkpt>
      <trkpt lat="50.20864" lon="1.53104">
        <ele>8.2</ele>
        <time>2013-10-13T07:53:48Z</time>
      </trkpt>
      <trkpt lat="50.20859" lon="1.5309">
        <ele>8.7</ele>
        <time>2013-10-13T07:53:55Z</time>
      </trkpt>
      <trkpt lat="50.20857" lon="1.53091">
        <ele>8.8</ele>
        <time>2013-10-13T07:54:03Z</time>
      </trkpt>
      <trkpt lat="50.2086" lon="1.53092">
        <ele>8.6</ele>
        <time>2013-10-13T07:54:05Z</time>
      </trkpt>
      <trkpt lat="50.2085" lon="1.53074">
        <ele>8.2</ele>
        <time>2013-10-13T07:54:11Z</time>
      </trkpt>
      <trkpt lat="50.20843" lon="1.53055">
        <ele>7.5</ele>
        <time>2013-10-13T07:54:19Z</time>
      </trkpt>
      <trkpt lat="50.20835" lon="1.53035">
        <ele>6.9</ele>
        <time>2013-10-13T07:54:27Z</time>
      </trkpt>
      <trkpt lat="50.20831" lon="1.53013">
        <ele>6.2</ele>
        <time>2013-10-13T07:54:36Z</time>
      </trkpt>
      <trkpt lat="50.20827" lon="1.52993">
        <ele>6.5</ele>
        <time>2013-10-13T07:54:44Z</time>
      </trkpt>
      <trkpt lat="50.20821" lon="1.52974">
        <ele>7.5</ele>
        <time>2013-10-13T07:54:55Z</time>
      </trkpt>
      <trkpt lat="50.2082" lon="1.52951">
        <ele>8.4</ele>
        <time>2013-10-13T07:55:05Z</time>
      </trkpt>
      <trkpt lat="50.20816" lon="1.5293">
        <ele>8.8</ele>
        <time>2013-10-13T07:55:14Z</time>
      </trkpt>
      <trkpt lat="50.20804" lon="1.52917">
        <ele>8.1</ele>
        <time>2013-10-13T07:55:23Z</time>
      </trkpt>
      <trkpt lat="50.20798" lon="1.52899">
        <ele>7.2</ele>
        <time>2013-10-13T07:55:35Z</time>
      </trkpt>
      <trkpt lat="50.20793" lon="1.52878">
        <ele>6.2</ele>
        <time>2013-10-13T07:55:48Z</time>
      </trkpt>
      <trkpt lat="50.20793" lon="1.52857">
        <ele>6.1</ele>
        <time>2013-10-13T07:55:55Z</time>
      </trkpt>
      <trkpt lat="50.20788" lon="1.52836">
        <ele>6.5</ele>
        <time>2013-10-13T07:56:05Z</time>
      </trkpt>
      <trkpt lat="50.20777" lon="1.52819">
        <ele>6.8</ele>
        <time>2013-10-13T07:56:14Z</time>
      </trkpt>
      <trkpt lat="50.20764" lon="1.52812">
        <ele>7.1</ele>
        <time>2013-10-13T07:56:24Z</time>
      </trkpt>
      <trkpt lat="50.20756" lon="1.52792">
        <ele>7.5</ele>
        <time>2013-10-13T07:56:38Z</time>
      </trkpt>
      <trkpt lat="50.20749" lon="1.52773">
        <ele>7.8</ele>
        <time>2013-10-13T07:56:47Z</time>
      </trkpt>
      <trkpt lat="50.20741" lon="1.52755">
        <ele>8.3</ele>
        <time>2013-10-13T07:57:00Z</time>
      </trkpt>
      <trkpt lat="50.20736" lon="1.52734">
        <ele>8.6</ele>
        <time>2013-10-13T07:57:09Z</time>
      </trkpt>
      <trkpt lat="50.20735" lon="1.52712">
        <ele>9</ele>
        <time>2013-10-13T07:57:21Z</time>
      </trkpt>
      <trkpt lat="50.20727" lon="1.52696">
        <ele>8.2</ele>
        <time>2013-10-13T07:57:29Z</time>
      </trkpt>
      <trkpt lat="50.20715" lon="1.52682">
        <ele>7.1</ele>
        <time>2013-10-13T07:57:39Z</time>
      </trkpt>
      <trkpt lat="50.2071" lon="1.52663">
        <ele>6.2</ele>
        <time>2013-10-13T07:57:47Z</time>
      </trkpt>
      <trkpt lat="50.20704" lon="1.52643">
        <ele>6.5</ele>
        <time>2013-10-13T07:57:56Z</time>
      </trkpt>
      <trkpt lat="50.20694" lon="1.52627">
        <ele>7.6</ele>
        <time>2013-10-13T07:58:10Z</time>
      </trkpt>
      <trkpt lat="50.20683" lon="1.52611">
        <ele>8.4</ele>
        <time>2013-10-13T07:58:20Z</time>
      </trkpt>
      <trkpt lat="50.20674" lon="1.52594">
        <ele>9.2</ele>
        <time>2013-10-13T07:58:30Z</time>
      </trkpt>
      <trkpt lat="50.20665" lon="1.52576">
        <ele>9.6</ele>
        <time>2013-10-13T07:58:41Z</time>
      </trkpt>
      <trkpt lat="50.20652" lon="1.52569">
        <ele>8.2</ele>
        <time>2013-10-13T07:59:00Z</time>
      </trkpt>
      <trkpt lat="50.2064" lon="1.52558">
        <ele>5.5</ele>
        <time>2013-10-13T07:59:14Z</time>
      </trkpt>
      <trkpt lat="50.20627" lon="1.52553">
        <ele>4.2</ele>
        <time>2013-10-13T07:59:31Z</time>
      </trkpt>
      <trkpt lat="50.20617" lon="1.52538">
        <ele>3.5</ele>
        <time>2013-10-13T07:59:50Z</time>
      </trkpt>
      <trkpt lat="50.20611" lon="1.52518">
        <ele>4.8</ele>
        <time>2013-10-13T07:59:58Z</time>
      </trkpt>
      <trkpt lat="50.20601" lon="1.52504">
        <ele>5.7</ele>
        <time>2013-10-13T08:00:03Z</time>
      </trkpt>
      <trkpt lat="50.2059" lon="1.5249">
        <ele>7.8</ele>
        <time>2013-10-13T08:00:21Z</time>
      </trkpt>
      <trkpt lat="50.20582" lon="1.52477">
        <ele>8.7</ele>
        <time>2013-10-13T08:00:29Z</time>
      </trkpt>
      <trkpt lat="50.20569" lon="1.52487">
        <ele>7.2</ele>
        <time>2013-10-13T08:00:36Z</time>
      </trkpt>
      <trkpt lat="50.20559" lon="1.52481">
        <ele>2.4</ele>
        <time>2013-10-13T08:00:47Z</time>
      </trkpt>
      <trkpt lat="50.2056" lon="1.52474">
        <ele>3.7</ele>
        <time>2013-10-13T08:00:50Z</time>
      </trkpt>
      <trkpt lat="50.20573" lon="1.52476">
        <ele>4.7</ele>
        <time>2013-10-13T08:01:07Z</time>
      </trkpt>
      <trkpt lat="50.20586" lon="1.52465">
        <ele>1.3</ele>
        <time>2013-10-13T08:01:23Z</time>
      </trkpt>
      <trkpt lat="50.206" lon="1.5247">
        <ele>-2</ele>
        <time>2013-10-13T08:01:33Z</time>
      </trkpt>
      <trkpt lat="50.20607" lon="1.5249">
        <ele>-2</ele>
        <time>2013-10-13T08:01:55Z</time>
      </trkpt>
      <trkpt lat="50.20607" lon="1.52496">
        <ele>-1.9</ele>
        <time>2013-10-13T08:01:58Z</time>
      </trkpt>
      <trkpt lat="50.20626" lon="1.52502">
        <ele>-1.8</ele>
        <time>2013-10-13T08:02:01Z</time>
      </trkpt>
      <trkpt lat="50.20612" lon="1.525">
        <ele>-1.5</ele>
        <time>2013-10-13T08:02:07Z</time>
      </trkpt>
      <trkpt lat="50.20608" lon="1.52499">
        <ele>-1.5</ele>
        <time>2013-10-13T08:02:08Z</time>
      </trkpt>
      <trkpt lat="50.2061" lon="1.52518">
        <ele>0.6</ele>
        <time>2013-10-13T08:02:32Z</time>
      </trkpt>
      <trkpt lat="50.20606" lon="1.52538">
        <ele>1.3</ele>
        <time>2013-10-13T08:02:47Z</time>
      </trkpt>
      <trkpt lat="50.20429" lon="1.52029">
        <ele>-4</ele>
        <time>2013-10-13T08:28:17Z</time>
      </trkpt>
      <trkpt lat="50.20428" lon="1.52029">
        <ele>-3.9</ele>
        <time>2013-10-13T08:28:18Z</time>
      </trkpt>
      <trkpt lat="50.20415" lon="1.52035">
        <ele>-3</ele>
        <time>2013-10-13T08:28:29Z</time>
      </trkpt>
      <trkpt lat="50.20401" lon="1.52043">
        <ele>-2</ele>
        <time>2013-10-13T08:28:39Z</time>
      </trkpt>
      <trkpt lat="50.20388" lon="1.52048">
        <ele>-1</ele>
        <time>2013-10-13T08:28:50Z</time>
      </trkpt>
      <trkpt lat="50.20374" lon="1.52054">
        <ele>-0.6</ele>
        <time>2013-10-13T08:29:00Z</time>
      </trkpt>
      <trkpt lat="50.2037" lon="1.52076">
        <ele>-0.3</ele>
        <time>2013-10-13T08:29:09Z</time>
      </trkpt>
      <trkpt lat="50.20356" lon="1.52082">
        <ele>0.2</ele>
        <time>2013-10-13T08:29:20Z</time>
      </trkpt>
      <trkpt lat="50.20343" lon="1.5209">
        <ele>0.4</ele>
        <time>2013-10-13T08:29:26Z</time>
      </trkpt>
      <trkpt lat="50.2033" lon="1.52096">
        <ele>0.7</ele>
        <time>2013-10-13T08:29:33Z</time>
      </trkpt>
      <trkpt lat="50.20319" lon="1.52111">
        <ele>1</ele>
        <time>2013-10-13T08:29:42Z</time>
      </trkpt>
      <trkpt lat="50.20317" lon="1.52133">
        <ele>1.2</ele>
        <time>2013-10-13T08:29:47Z</time>
      </trkpt>
      <trkpt lat="50.20303" lon="1.52131">
        <ele>1.6</ele>
        <time>2013-10-13T08:29:58Z</time>
      </trkpt>
      <trkpt lat="50.203" lon="1.52135">
        <ele>2</ele>
        <time>2013-10-13T08:30:07Z</time>
      </trkpt>
      <trkpt lat="50.20292" lon="1.52124">
        <ele>4.5</ele>
        <time>2013-10-13T08:30:16Z</time>
      </trkpt>
      <trkpt lat="50.20279" lon="1.52134">
        <ele>7</ele>
        <time>2013-10-13T08:30:24Z</time>
      </trkpt>
      <trkpt lat="50.20269" lon="1.52149">
        <ele>7.5</ele>
        <time>2013-10-13T08:30:34Z</time>
      </trkpt>
      <trkpt lat="50.20266" lon="1.5217">
        <ele>7.6</ele>
        <time>2013-10-13T08:30:49Z</time>
      </trkpt>
      <trkpt lat="50.20267" lon="1.52191">
        <ele>7.3</ele>
        <time>2013-10-13T08:30:53Z</time>
      </trkpt>
      <trkpt lat="50.20259" lon="1.52208">
        <ele>6.4</ele>
        <time>2013-10-13T08:31:03Z</time>
      </trkpt>
      <trkpt lat="50.20251" lon="1.52227">
        <ele>5.2</ele>
        <time>2013-10-13T08:31:16Z</time>
      </trkpt>
      <trkpt lat="50.20256" lon="1.52247">
        <ele>4.4</ele>
        <time>2013-10-13T08:31:25Z</time>
      </trkpt>
      <trkpt lat="50.20255" lon="1.5227">
        <ele>3.2</ele>
        <time>2013-10-13T08:31:38Z</time>
      </trkpt>
      <trkpt lat="50.20254" lon="1.52292">
        <ele>2.3</ele>
        <time>2013-10-13T08:31:48Z</time>
      </trkpt>
      <trkpt lat="50.2025" lon="1.52313">
        <ele>1.2</ele>
        <time>2013-10-13T08:32:01Z</time>
      </trkpt>
      <trkpt lat="50.20254" lon="1.52334">
        <ele>0.5</ele>
        <time>2013-10-13T08:32:08Z</time>
      </trkpt>
      <trkpt lat="50.20258" lon="1.52355">
        <ele>-0.3</ele>
        <time>2013-10-13T08:32:18Z</time>
      </trkpt>
      <trkpt lat="50.20262" lon="1.52376">
        <ele>-1</ele>
        <time>2013-10-13T08:32:29Z</time>
      </trkpt>
      <trkpt lat="50.2026" lon="1.52397">
        <ele>-1.7</ele>
        <time>2013-10-13T08:32:39Z</time>
      </trkpt>
      <trkpt lat="50.20261" lon="1.5242">
        <ele>-2.4</ele>
        <time>2013-10-13T08:32:50Z</time>
      </trkpt>
      <trkpt lat="50.20258" lon="1.52443">
        <ele>-2.8</ele>
        <time>2013-10-13T08:33:02Z</time>
      </trkpt>
      <trkpt lat="50.20259" lon="1.52465">
        <ele>-2.1</ele>
        <time>2013-10-13T08:33:11Z</time>
      </trkpt>
      <trkpt lat="50.20261" lon="1.52487">
        <ele>-1.4</ele>
        <time>2013-10-13T08:33:19Z</time>
      </trkpt>
      <trkpt lat="50.20263" lon="1.5251">
        <ele>-0.6</ele>
        <time>2013-10-13T08:33:30Z</time>
      </trkpt>
      <trkpt lat="50.20268" lon="1.52531">
        <ele>-1</ele>
        <time>2013-10-13T08:33:39Z</time>
      </trkpt>
      <trkpt lat="50.2027" lon="1.52553">
        <ele>-3.7</ele>
        <time>2013-10-13T08:33:50Z</time>
      </trkpt>
      <trkpt lat="50.20267" lon="1.52574">
        <ele>-4.8</ele>
        <time>2013-10-13T08:34:00Z</time>
      </trkpt>
      <trkpt lat="50.20271" lon="1.52594">
        <ele>-5.8</ele>
        <time>2013-10-13T08:34:09Z</time>
      </trkpt>
      <trkpt lat="50.20274" lon="1.52616">
        <ele>-4.4</ele>
        <time>2013-10-13T08:34:23Z</time>
      </trkpt>
      <trkpt lat="50.20276" lon="1.52637">
        <ele>-6.3</ele>
        <time>2013-10-13T08:34:31Z</time>
      </trkpt>
      <trkpt lat="50.20273" lon="1.52658">
        <ele>-3.5</ele>
        <time>2013-10-13T08:34:41Z</time>
      </trkpt>
      <trkpt lat="50.20272" lon="1.5268">
        <ele>-1.7</ele>
        <time>2013-10-13T08:34:49Z</time>
      </trkpt>
      <trkpt lat="50.20279" lon="1.527">
        <ele>-1.3</ele>
        <time>2013-10-13T08:34:55Z</time>
      </trkpt>
      <trkpt lat="50.20279" lon="1.52721">
        <ele>-0.9</ele>
        <time>2013-10-13T08:35:02Z</time>
      </trkpt>
      <trkpt lat="50.20277" lon="1.52743">
        <ele>7</ele>
        <time>2013-10-13T08:35:17Z</time>
      </trkpt>
      <trkpt lat="50.20277" lon="1.52764">
        <ele>0.7</ele>
        <time>2013-10-13T08:35:29Z</time>
      </trkpt>
      <trkpt lat="50.20278" lon="1.52786">
        <ele>1.2</ele>
        <time>2013-10-13T08:35:38Z</time>
      </trkpt>
      <trkpt lat="50.20279" lon="1.52808">
        <ele>1.8</ele>
        <time>2013-10-13T08:35:47Z</time>
      </trkpt>
      <trkpt lat="50.2028" lon="1.52829">
        <ele>2.6</ele>
        <time>2013-10-13T08:35:58Z</time>
      </trkpt>
      <trkpt lat="50.2028" lon="1.52853">
        <ele>3.8</ele>
        <time>2013-10-13T08:36:11Z</time>
      </trkpt>
      <trkpt lat="50.20276" lon="1.52875">
        <ele>4.4</ele>
        <time>2013-10-13T08:36:18Z</time>
      </trkpt>
      <trkpt lat="50.20271" lon="1.52886">
        <ele>5.1</ele>
        <time>2013-10-13T08:36:27Z</time>
      </trkpt>
      <trkpt lat="50.20275" lon="1.52907">
        <ele>5.8</ele>
        <time>2013-10-13T08:36:39Z</time>
      </trkpt>
      <trkpt lat="50.20276" lon="1.52928">
        <ele>6</ele>
        <time>2013-10-13T08:36:44Z</time>
      </trkpt>
      <trkpt lat="50.20273" lon="1.52949">
        <ele>6.7</ele>
        <time>2013-10-13T08:36:56Z</time>
      </trkpt>
      <trkpt lat="50.20274" lon="1.52971">
        <ele>7</ele>
        <time>2013-10-13T08:37:03Z</time>
      </trkpt>
      <trkpt lat="50.20274" lon="1.52993">
        <ele>7.6</ele>
        <time>2013-10-13T08:37:14Z</time>
      </trkpt>
      <trkpt lat="50.20272" lon="1.53016">
        <ele>8.3</ele>
        <time>2013-10-13T08:37:27Z</time>
      </trkpt>
      <trkpt lat="50.20268" lon="1.53038">
        <ele>8.9</ele>
        <time>2013-10-13T08:37:38Z</time>
      </trkpt>
      <trkpt lat="50.2027" lon="1.53059">
        <ele>9.7</ele>
        <time>2013-10-13T08:37:52Z</time>
      </trkpt>
      <trkpt lat="50.20273" lon="1.53079">
        <ele>10</ele>
        <time>2013-10-13T08:37:58Z</time>
      </trkpt>
      <trkpt lat="50.20274" lon="1.53102">
        <ele>10.2</ele>
        <time>2013-10-13T08:38:03Z</time>
      </trkpt>
      <trkpt lat="50.20278" lon="1.53125">
        <ele>10.8</ele>
        <time>2013-10-13T08:38:13Z</time>
      </trkpt>
      <trkpt lat="50.20268" lon="1.5314">
        <ele>8.8</ele>
        <time>2013-10-13T08:38:23Z</time>
      </trkpt>
      <trkpt lat="50.20266" lon="1.53163">
        <ele>7.2</ele>
        <time>2013-10-13T08:38:30Z</time>
      </trkpt>
      <trkpt lat="50.20267" lon="1.53184">
        <ele>8.3</ele>
        <time>2013-10-13T08:38:40Z</time>
      </trkpt>
      <trkpt lat="50.20264" lon="1.53207">
        <ele>9.3</ele>
        <time>2013-10-13T08:38:49Z</time>
      </trkpt>
      <trkpt lat="50.20264" lon="1.53229">
        <ele>10.2</ele>
        <time>2013-10-13T08:38:56Z</time>
      </trkpt>
      <trkpt lat="50.20252" lon="1.53241">
        <ele>12.2</ele>
        <time>2013-10-13T08:39:11Z</time>
      </trkpt>
      <trkpt lat="50.20245" lon="1.53249">
        <ele>11.6</ele>
        <time>2013-10-13T08:39:15Z</time>
      </trkpt>
      <trkpt lat="50.20247" lon="1.5327">
        <ele>10.4</ele>
        <time>2013-10-13T08:39:23Z</time>
      </trkpt>
      <trkpt lat="50.20253" lon="1.53291">
        <ele>9.3</ele>
        <time>2013-10-13T08:39:30Z</time>
      </trkpt>
      <trkpt lat="50.2026" lon="1.5331">
        <ele>7.8</ele>
        <time>2013-10-13T08:39:41Z</time>
      </trkpt>
      <trkpt lat="50.20263" lon="1.53335">
        <ele>7.1</ele>
        <time>2013-10-13T08:39:49Z</time>
      </trkpt>
      <trkpt lat="50.20264" lon="1.53356">
        <ele>6.3</ele>
        <time>2013-10-13T08:39:58Z</time>
      </trkpt>
      <trkpt lat="50.20262" lon="1.53378">
        <ele>5.2</ele>
        <time>2013-10-13T08:40:10Z</time>
      </trkpt>
      <trkpt lat="50.20254" lon="1.53401">
        <ele>4.7</ele>
        <time>2013-10-13T08:40:16Z</time>
      </trkpt>
      <trkpt lat="50.20252" lon="1.53422">
        <ele>4.5</ele>
        <time>2013-10-13T08:40:20Z</time>
      </trkpt>
      <trkpt lat="50.2025" lon="1.53432">
        <ele>4</ele>
        <time>2013-10-13T08:40:27Z</time>
      </trkpt>
      <trkpt lat="50.20243" lon="1.5345">
        <ele>3.2</ele>
        <time>2013-10-13T08:40:39Z</time>
      </trkpt>
      <trkpt lat="50.20245" lon="1.53466">
        <ele>2.8</ele>
        <time>2013-10-13T08:40:46Z</time>
      </trkpt>
      <trkpt lat="50.20236" lon="1.53482">
        <ele>2.1</ele>
        <time>2013-10-13T08:40:56Z</time>
      </trkpt>
      <trkpt lat="50.2023" lon="1.53502">
        <ele>1.5</ele>
        <time>2013-10-13T08:41:06Z</time>
      </trkpt>
      <trkpt lat="50.20224" lon="1.53522">
        <ele>1.2</ele>
        <time>2013-10-13T08:41:18Z</time>
      </trkpt>
      <trkpt lat="50.20222" lon="1.53545">
        <ele>1.7</ele>
        <time>2013-10-13T08:41:32Z</time>
      </trkpt>
      <trkpt lat="50.20217" lon="1.53566">
        <ele>2</ele>
        <time>2013-10-13T08:41:43Z</time>
      </trkpt>
      <trkpt lat="50.20211" lon="1.53586">
        <ele>2.4</ele>
        <time>2013-10-13T08:41:52Z</time>
      </trkpt>
      <trkpt lat="50.20206" lon="1.53607">
        <ele>2.7</ele>
        <time>2013-10-13T08:42:02Z</time>
      </trkpt>
      <trkpt lat="50.20203" lon="1.53628">
        <ele>3</ele>
        <time>2013-10-13T08:42:11Z</time>
      </trkpt>
      <trkpt lat="50.2019" lon="1.53639">
        <ele>3.4</ele>
        <time>2013-10-13T08:42:21Z</time>
      </trkpt>
      <trkpt lat="50.20181" lon="1.53655">
        <ele>3.7</ele>
        <time>2013-10-13T08:42:29Z</time>
      </trkpt>
      <trkpt lat="50.20171" lon="1.5367">
        <ele>4</ele>
        <time>2013-10-13T08:42:39Z</time>
      </trkpt>
      <trkpt lat="50.20159" lon="1.53682">
        <ele>5.3</ele>
        <time>2013-10-13T08:42:51Z</time>
      </trkpt>
      <trkpt lat="50.2015" lon="1.537">
        <ele>6.5</ele>
        <time>2013-10-13T08:43:02Z</time>
      </trkpt>
      <trkpt lat="50.20139" lon="1.53713">
        <ele>7.7</ele>
        <time>2013-10-13T08:43:13Z</time>
      </trkpt>
      <trkpt lat="50.20128" lon="1.53728">
        <ele>3</ele>
        <time>2013-10-13T08:43:21Z</time>
      </trkpt>
      <trkpt lat="50.20118" lon="1.53744">
        <ele>4.5</ele>
        <time>2013-10-13T08:43:31Z</time>
      </trkpt>
      <trkpt lat="50.20106" lon="1.53755">
        <ele>8.9</ele>
        <time>2013-10-13T08:43:41Z</time>
      </trkpt>
      <trkpt lat="50.20094" lon="1.53768">
        <ele>13.3</ele>
        <time>2013-10-13T08:43:51Z</time>
      </trkpt>
      <trkpt lat="50.20082" lon="1.53781">
        <ele>14.6</ele>
        <time>2013-10-13T08:44:03Z</time>
      </trkpt>
      <trkpt lat="50.2007" lon="1.53793">
        <ele>11.4</ele>
        <time>2013-10-13T08:44:16Z</time>
      </trkpt>
      <trkpt lat="50.20059" lon="1.53808">
        <ele>10.6</ele>
        <time>2013-10-13T08:44:25Z</time>
      </trkpt>
      <trkpt lat="50.20047" lon="1.53822">
        <ele>9</ele>
        <time>2013-10-13T08:44:34Z</time>
      </trkpt>
      <trkpt lat="50.20034" lon="1.53834">
        <ele>7.2</ele>
        <time>2013-10-13T08:44:44Z</time>
      </trkpt>
      <trkpt lat="50.20022" lon="1.53844">
        <ele>5.8</ele>
        <time>2013-10-13T08:44:54Z</time>
      </trkpt>
      <trkpt lat="50.2001" lon="1.53853">
        <ele>4.5</ele>
        <time>2013-10-13T08:45:09Z</time>
      </trkpt>
      <trkpt lat="50.19995" lon="1.53845">
        <ele>2.5</ele>
        <time>2013-10-13T08:45:17Z</time>
      </trkpt>
      <trkpt lat="50.19988" lon="1.53864">
        <ele>0.3</ele>
        <time>2013-10-13T08:45:25Z</time>
      </trkpt>
      <trkpt lat="50.19971" lon="1.53897">
        <ele>-1.4</ele>
        <time>2013-10-13T08:45:46Z</time>
      </trkpt>
      <trkpt lat="50.19971" lon="1.53897">
        <ele>-1.4</ele>
        <time>2013-10-13T08:49:18Z</time>
      </trkpt>
      <trkpt lat="50.19961" lon="1.53913">
        <ele>-0.8</ele>
        <time>2013-10-13T08:49:19Z</time>
      </trkpt>
      <trkpt lat="50.19947" lon="1.53911">
        <ele>-0.4</ele>
        <time>2013-10-13T08:49:30Z</time>
      </trkpt>
      <trkpt lat="50.19934" lon="1.5391">
        <ele>5.1</ele>
        <time>2013-10-13T08:49:41Z</time>
      </trkpt>
      <trkpt lat="50.1992" lon="1.53921">
        <ele>1.7</ele>
        <time>2013-10-13T08:49:50Z</time>
      </trkpt>
      <trkpt lat="50.19908" lon="1.53933">
        <ele>2.9</ele>
        <time>2013-10-13T08:49:59Z</time>
      </trkpt>
      <trkpt lat="50.19895" lon="1.53941">
        <ele>2.6</ele>
        <time>2013-10-13T08:50:11Z</time>
      </trkpt>
      <trkpt lat="50.19882" lon="1.53953">
        <ele>2.2</ele>
        <time>2013-10-13T08:50:24Z</time>
      </trkpt>
      <trkpt lat="50.1987" lon="1.53961">
        <ele>1.9</ele>
        <time>2013-10-13T08:50:36Z</time>
      </trkpt>
      <trkpt lat="50.19856" lon="1.53967">
        <ele>1.5</ele>
        <time>2013-10-13T08:50:49Z</time>
      </trkpt>
      <trkpt lat="50.19842" lon="1.53976">
        <ele>1.3</ele>
        <time>2013-10-13T08:50:57Z</time>
      </trkpt>
      <trkpt lat="50.1983" lon="1.53984">
        <ele>1</ele>
        <time>2013-10-13T08:51:08Z</time>
      </trkpt>
      <trkpt lat="50.19815" lon="1.53985">
        <ele>0.6</ele>
        <time>2013-10-13T08:51:19Z</time>
      </trkpt>
      <trkpt lat="50.19801" lon="1.53992">
        <ele>0.3</ele>
        <time>2013-10-13T08:51:31Z</time>
      </trkpt>
      <trkpt lat="50.19788" lon="1.53999">
        <ele>-0.1</ele>
        <time>2013-10-13T08:51:44Z</time>
      </trkpt>
      <trkpt lat="50.19775" lon="1.54009">
        <ele>-0.5</ele>
        <time>2013-10-13T08:51:52Z</time>
      </trkpt>
      <trkpt lat="50.19765" lon="1.54022">
        <ele>-0.9</ele>
        <time>2013-10-13T08:52:00Z</time>
      </trkpt>
      <trkpt lat="50.19752" lon="1.54032">
        <ele>-1.5</ele>
        <time>2013-10-13T08:52:13Z</time>
      </trkpt>
      <trkpt lat="50.1974" lon="1.54042">
        <ele>-2</ele>
        <time>2013-10-13T08:52:25Z</time>
      </trkpt>
      <trkpt lat="50.19727" lon="1.54052">
        <ele>-2.4</ele>
        <time>2013-10-13T08:52:34Z</time>
      </trkpt>
      <trkpt lat="50.19713" lon="1.5406">
        <ele>-2.8</ele>
        <time>2013-10-13T08:52:42Z</time>
      </trkpt>
      <trkpt lat="50.19701" lon="1.5407">
        <ele>-3.6</ele>
        <time>2013-10-13T08:52:54Z</time>
      </trkpt>
      <trkpt lat="50.1969" lon="1.54086">
        <ele>-4.2</ele>
        <time>2013-10-13T08:53:00Z</time>
      </trkpt>
      <trkpt lat="50.19679" lon="1.54101">
        <ele>-4.7</ele>
        <time>2013-10-13T08:53:06Z</time>
      </trkpt>
      <trkpt lat="50.19668" lon="1.54113">
        <ele>-5.7</ele>
        <time>2013-10-13T08:53:17Z</time>
      </trkpt>
      <trkpt lat="50.19654" lon="1.54113">
        <ele>-4.8</ele>
        <time>2013-10-13T08:53:29Z</time>
      </trkpt>
      <trkpt lat="50.19641" lon="1.54123">
        <ele>-3.4</ele>
        <time>2013-10-13T08:53:40Z</time>
      </trkpt>
      <trkpt lat="50.19624" lon="1.54134">
        <ele>-1.5</ele>
        <time>2013-10-13T08:53:49Z</time>
      </trkpt>
      <trkpt lat="50.19612" lon="1.54146">
        <ele>1.9</ele>
        <time>2013-10-13T08:54:02Z</time>
      </trkpt>
      <trkpt lat="50.19601" lon="1.54162">
        <ele>3</ele>
        <time>2013-10-13T08:54:12Z</time>
      </trkpt>
      <trkpt lat="50.19591" lon="1.54176">
        <ele>1.8</ele>
        <time>2013-10-13T08:54:20Z</time>
      </trkpt>
      <trkpt lat="50.19579" lon="1.54188">
        <ele>2</ele>
        <time>2013-10-13T08:54:32Z</time>
      </trkpt>
      <trkpt lat="50.19567" lon="1.54206">
        <ele>1.9</ele>
        <time>2013-10-13T08:54:41Z</time>
      </trkpt>
      <trkpt lat="50.19557" lon="1.5422">
        <ele>1.3</ele>
        <time>2013-10-13T08:54:51Z</time>
      </trkpt>
      <trkpt lat="50.19544" lon="1.54229">
        <ele>0.6</ele>
        <time>2013-10-13T08:55:01Z</time>
      </trkpt>
      <trkpt lat="50.19531" lon="1.54236">
        <ele>5</ele>
        <time>2013-10-13T08:55:11Z</time>
      </trkpt>
      <trkpt lat="50.19517" lon="1.54247">
        <ele>-0.8</ele>
        <time>2013-10-13T08:55:25Z</time>
      </trkpt>
      <trkpt lat="50.19508" lon="1.54266">
        <ele>-1.2</ele>
        <time>2013-10-13T08:55:31Z</time>
      </trkpt>
      <trkpt lat="50.19497" lon="1.54279">
        <ele>-1.7</ele>
        <time>2013-10-13T08:55:39Z</time>
      </trkpt>
      <trkpt lat="50.19483" lon="1.5428">
        <ele>-4.4</ele>
        <time>2013-10-13T08:55:52Z</time>
      </trkpt>
      <trkpt lat="50.19469" lon="1.54289">
        <ele>-5.7</ele>
        <time>2013-10-13T08:56:02Z</time>
      </trkpt>
      <trkpt lat="50.19462" lon="1.54308">
        <ele>-4.8</ele>
        <time>2013-10-13T08:56:08Z</time>
      </trkpt>
      <trkpt lat="50.19449" lon="1.54319">
        <ele>-3.6</ele>
        <time>2013-10-13T08:56:21Z</time>
      </trkpt>
      <trkpt lat="50.19439" lon="1.54338">
        <ele>-2.9</ele>
        <time>2013-10-13T08:56:28Z</time>
      </trkpt>
      <trkpt lat="50.19425" lon="1.54343">
        <ele>-2</ele>
        <time>2013-10-13T08:56:38Z</time>
      </trkpt>
      <trkpt lat="50.19411" lon="1.54346">
        <ele>-3.4</ele>
        <time>2013-10-13T08:56:48Z</time>
      </trkpt>
      <trkpt lat="50.19413" lon="1.54367">
        <ele>-5</ele>
        <time>2013-10-13T08:57:00Z</time>
      </trkpt>
      <trkpt lat="50.19425" lon="1.54379">
        <ele>-3.2</ele>
        <time>2013-10-13T08:57:10Z</time>
      </trkpt>
      <trkpt lat="50.19433" lon="1.54397">
        <ele>-2.1</ele>
        <time>2013-10-13T08:57:19Z</time>
      </trkpt>
      <trkpt lat="50.19441" lon="1.54416">
        <ele>-2.3</ele>
        <time>2013-10-13T08:57:29Z</time>
      </trkpt>
      <trkpt lat="50.1945" lon="1.54433">
        <ele>-2.6</ele>
        <time>2013-10-13T08:57:39Z</time>
      </trkpt>
      <trkpt lat="50.19458" lon="1.54451">
        <ele>-2.9</ele>
        <time>2013-10-13T08:57:49Z</time>
      </trkpt>
      <trkpt lat="50.19468" lon="1.54468">
        <ele>-3.2</ele>
        <time>2013-10-13T08:58:00Z</time>
      </trkpt>
      <trkpt lat="50.19475" lon="1.54486">
        <ele>-3.5</ele>
        <time>2013-10-13T08:58:11Z</time>
      </trkpt>
      <trkpt lat="50.19483" lon="1.54505">
        <ele>-3.8</ele>
        <time>2013-10-13T08:58:22Z</time>
      </trkpt>
      <trkpt lat="50.19489" lon="1.54524">
        <ele>-4.1</ele>
        <time>2013-10-13T08:58:33Z</time>
      </trkpt>
      <trkpt lat="50.19498" lon="1.54542">
        <ele>-4.3</ele>
        <time>2013-10-13T08:58:43Z</time>
      </trkpt>
      <trkpt lat="50.19508" lon="1.5456">
        <ele>-4.6</ele>
        <time>2013-10-13T08:58:52Z</time>
      </trkpt>
      <trkpt lat="50.19515" lon="1.5458">
        <ele>-4.9</ele>
        <time>2013-10-13T08:59:03Z</time>
      </trkpt>
      <trkpt lat="50.19523" lon="1.54597">
        <ele>-4.9</ele>
        <time>2013-10-13T08:59:13Z</time>
      </trkpt>
      <trkpt lat="50.1953" lon="1.54616">
        <ele>-4.6</ele>
        <time>2013-10-13T08:59:24Z</time>
      </trkpt>
      <trkpt lat="50.19534" lon="1.54637">
        <ele>-4.3</ele>
        <time>2013-10-13T08:59:35Z</time>
      </trkpt>
      <trkpt lat="50.19537" lon="1.5466">
        <ele>-4</ele>
        <time>2013-10-13T08:59:45Z</time>
      </trkpt>
      <trkpt lat="50.19542" lon="1.54681">
        <ele>-3.7</ele>
        <time>2013-10-13T08:59:54Z</time>
      </trkpt>
      <trkpt lat="50.19547" lon="1.54702">
        <ele>-3.5</ele>
        <time>2013-10-13T09:00:03Z</time>
      </trkpt>
      <trkpt lat="50.19549" lon="1.54725">
        <ele>-3.2</ele>
        <time>2013-10-13T09:00:15Z</time>
      </trkpt>
      <trkpt lat="50.1956" lon="1.54738">
        <ele>-2.8</ele>
        <time>2013-10-13T09:00:28Z</time>
      </trkpt>
      <trkpt lat="50.1957" lon="1.54755">
        <ele>-2.4</ele>
        <time>2013-10-13T09:00:43Z</time>
      </trkpt>
      <trkpt lat="50.19578" lon="1.54774">
        <ele>-2.1</ele>
        <time>2013-10-13T09:00:54Z</time>
      </trkpt>
      <trkpt lat="50.19586" lon="1.54791">
        <ele>-0.9</ele>
        <time>2013-10-13T09:01:03Z</time>
      </trkpt>
      <trkpt lat="50.19592" lon="1.54809">
        <ele>0.9</ele>
        <time>2013-10-13T09:01:17Z</time>
      </trkpt>
      <trkpt lat="50.19599" lon="1.54829">
        <ele>0.4</ele>
        <time>2013-10-13T09:01:27Z</time>
      </trkpt>
      <trkpt lat="50.19605" lon="1.5485">
        <ele>4</ele>
        <time>2013-10-13T09:01:37Z</time>
      </trkpt>
      <trkpt lat="50.19608" lon="1.54872">
        <ele>-0.5</ele>
        <time>2013-10-13T09:01:48Z</time>
      </trkpt>
      <trkpt lat="50.19616" lon="1.54891">
        <ele>-1</ele>
        <time>2013-10-13T09:01:58Z</time>
      </trkpt>
      <trkpt lat="50.19622" lon="1.54913">
        <ele>-1.4</ele>
        <time>2013-10-13T09:02:08Z</time>
      </trkpt>
      <trkpt lat="50.19626" lon="1.54934">
        <ele>-1.9</ele>
        <time>2013-10-13T09:02:25Z</time>
      </trkpt>
      <trkpt lat="50.19634" lon="1.54954">
        <ele>-1.6</ele>
        <time>2013-10-13T09:02:34Z</time>
      </trkpt>
      <trkpt lat="50.19641" lon="1.54973">
        <ele>-1.3</ele>
        <time>2013-10-13T09:02:46Z</time>
      </trkpt>
      <trkpt lat="50.1965" lon="1.54991">
        <ele>-1</ele>
        <time>2013-10-13T09:02:54Z</time>
      </trkpt>
      <trkpt lat="50.19664" lon="1.55002">
        <ele>-0.7</ele>
        <time>2013-10-13T09:03:05Z</time>
      </trkpt>
      <trkpt lat="50.19678" lon="1.55005">
        <ele>-0.5</ele>
        <time>2013-10-13T09:03:12Z</time>
      </trkpt>
      <trkpt lat="50.19692" lon="1.55002">
        <ele>-0.2</ele>
        <time>2013-10-13T09:03:22Z</time>
      </trkpt>
      <trkpt lat="50.19705" lon="1.55007">
        <ele>0.1</ele>
        <time>2013-10-13T09:03:31Z</time>
      </trkpt>
      <trkpt lat="50.19719" lon="1.55011">
        <ele>0.3</ele>
        <time>2013-10-13T09:03:39Z</time>
      </trkpt>
      <trkpt lat="50.19732" lon="1.55016">
        <ele>0.6</ele>
        <time>2013-10-13T09:03:50Z</time>
      </trkpt>
      <trkpt lat="50.19746" lon="1.55015">
        <ele>0.9</ele>
        <time>2013-10-13T09:04:00Z</time>
      </trkpt>
      <trkpt lat="50.1976" lon="1.55016">
        <ele>1.2</ele>
        <time>2013-10-13T09:04:09Z</time>
      </trkpt>
      <trkpt lat="50.19774" lon="1.55018">
        <ele>1.5</ele>
        <time>2013-10-13T09:04:20Z</time>
      </trkpt>
      <trkpt lat="50.19789" lon="1.55018">
        <ele>1.8</ele>
        <time>2013-10-13T09:04:28Z</time>
      </trkpt>
      <trkpt lat="50.19802" lon="1.55015">
        <ele>1.8</ele>
        <time>2013-10-13T09:04:38Z</time>
      </trkpt>
      <trkpt lat="50.19816" lon="1.55009">
        <ele>1</ele>
        <time>2013-10-13T09:04:47Z</time>
      </trkpt>
      <trkpt lat="50.19829" lon="1.55003">
        <ele>5</ele>
        <time>2013-10-13T09:04:58Z</time>
      </trkpt>
      <trkpt lat="50.19841" lon="1.54992">
        <ele>-0.9</ele>
        <time>2013-10-13T09:05:08Z</time>
      </trkpt>
      <trkpt lat="50.19855" lon="1.54985">
        <ele>-0.5</ele>
        <time>2013-10-13T09:05:18Z</time>
      </trkpt>
      <trkpt lat="50.19866" lon="1.54973">
        <ele>0.1</ele>
        <time>2013-10-13T09:05:28Z</time>
      </trkpt>
      <trkpt lat="50.19877" lon="1.54959">
        <ele>0.6</ele>
        <time>2013-10-13T09:05:38Z</time>
      </trkpt>
      <trkpt lat="50.19888" lon="1.54947">
        <ele>1.3</ele>
        <time>2013-10-13T09:05:49Z</time>
      </trkpt>
      <trkpt lat="50.199" lon="1.54935">
        <ele>1.9</ele>
        <time>2013-10-13T09:06:00Z</time>
      </trkpt>
      <trkpt lat="50.19912" lon="1.54921">
        <ele>4.9</ele>
        <time>2013-10-13T09:06:09Z</time>
      </trkpt>
      <trkpt lat="50.19923" lon="1.54909">
        <ele>3.6</ele>
        <time>2013-10-13T09:06:18Z</time>
      </trkpt>
      <trkpt lat="50.19934" lon="1.54896">
        <ele>2</ele>
        <time>2013-10-13T09:06:29Z</time>
      </trkpt>
      <trkpt lat="50.19947" lon="1.54884">
        <ele>0.8</ele>
        <time>2013-10-13T09:06:40Z</time>
      </trkpt>
      <trkpt lat="50.1996" lon="1.54876">
        <ele>0.2</ele>
        <time>2013-10-13T09:06:50Z</time>
      </trkpt>
      <trkpt lat="50.19972" lon="1.54866">
        <ele>-0.4</ele>
        <time>2013-10-13T09:07:00Z</time>
      </trkpt>
      <trkpt lat="50.19986" lon="1.54869">
        <ele>-1</ele>
        <time>2013-10-13T09:07:10Z</time>
      </trkpt>
      <trkpt lat="50.2" lon="1.5487">
        <ele>-1.6</ele>
        <time>2013-10-13T09:07:21Z</time>
      </trkpt>
      <trkpt lat="50.20014" lon="1.54873">
        <ele>-1.9</ele>
        <time>2013-10-13T09:07:31Z</time>
      </trkpt>
      <trkpt lat="50.20029" lon="1.54869">
        <ele>-1.5</ele>
        <time>2013-10-13T09:07:40Z</time>
      </trkpt>
      <trkpt lat="50.20042" lon="1.54865">
        <ele>-1.1</ele>
        <time>2013-10-13T09:07:49Z</time>
      </trkpt>
      <trkpt lat="50.20055" lon="1.54871">
        <ele>-0.6</ele>
        <time>2013-10-13T09:08:00Z</time>
      </trkpt>
      <trkpt lat="50.20069" lon="1.54879">
        <ele>-0.1</ele>
        <time>2013-10-13T09:08:10Z</time>
      </trkpt>
      <trkpt lat="50.20082" lon="1.54884">
        <ele>0.4</ele>
        <time>2013-10-13T09:08:22Z</time>
      </trkpt>
      <trkpt lat="50.20097" lon="1.54884">
        <ele>0.9</ele>
        <time>2013-10-13T09:08:34Z</time>
      </trkpt>
      <trkpt lat="50.20107" lon="1.54886">
        <ele>1.2</ele>
        <time>2013-10-13T09:08:41Z</time>
      </trkpt>
      <trkpt lat="50.20119" lon="1.549">
        <ele>1.4</ele>
        <time>2013-10-13T09:08:45Z</time>
      </trkpt>
      <trkpt lat="50.20128" lon="1.54909">
        <ele>1.8</ele>
        <time>2013-10-13T09:08:53Z</time>
      </trkpt>
      <trkpt lat="50.20137" lon="1.54892">
        <ele>1.2</ele>
        <time>2013-10-13T09:09:01Z</time>
      </trkpt>
      <trkpt lat="50.20148" lon="1.54877">
        <ele>-1</ele>
        <time>2013-10-13T09:09:09Z</time>
      </trkpt>
      <trkpt lat="50.2016" lon="1.54867">
        <ele>-0.4</ele>
        <time>2013-10-13T09:09:19Z</time>
      </trkpt>
      <trkpt lat="50.20179" lon="1.54852">
        <ele>1.9</ele>
        <time>2013-10-13T09:09:32Z</time>
      </trkpt>
      <trkpt lat="50.20179" lon="1.54852">
        <ele>1.9</ele>
        <time>2013-10-13T09:10:05Z</time>
      </trkpt>
      <trkpt lat="50.20201" lon="1.54845">
        <ele>5.8</ele>
        <time>2013-10-13T09:10:21Z</time>
      </trkpt>
      <trkpt lat="50.20201" lon="1.54845">
        <ele>5.8</ele>
        <time>2013-10-13T09:14:05Z</time>
      </trkpt>
      <trkpt lat="50.20218" lon="1.54844">
        <ele>8</ele>
        <time>2013-10-13T09:14:05Z</time>
      </trkpt>
      <trkpt lat="50.20232" lon="1.54852">
        <ele>7.3</ele>
        <time>2013-10-13T09:14:14Z</time>
      </trkpt>
      <trkpt lat="50.20245" lon="1.54859">
        <ele>6.4</ele>
        <time>2013-10-13T09:14:26Z</time>
      </trkpt>
      <trkpt lat="50.20259" lon="1.54867">
        <ele>5.3</ele>
        <time>2013-10-13T09:14:39Z</time>
      </trkpt>
      <trkpt lat="50.20269" lon="1.54883">
        <ele>4.2</ele>
        <time>2013-10-13T09:14:53Z</time>
      </trkpt>
      <trkpt lat="50.20279" lon="1.54898">
        <ele>7</ele>
        <time>2013-10-13T09:15:08Z</time>
      </trkpt>
      <trkpt lat="50.20285" lon="1.54918">
        <ele>5.9</ele>
        <time>2013-10-13T09:15:19Z</time>
      </trkpt>
      <trkpt lat="50.20292" lon="1.54937">
        <ele>4.9</ele>
        <time>2013-10-13T09:15:30Z</time>
      </trkpt>
      <trkpt lat="50.20295" lon="1.54957">
        <ele>4.1</ele>
        <time>2013-10-13T09:15:44Z</time>
      </trkpt>
      <trkpt lat="50.20303" lon="1.54976">
        <ele>4.4</ele>
        <time>2013-10-13T09:15:54Z</time>
      </trkpt>
      <trkpt lat="50.20309" lon="1.54995">
        <ele>4.7</ele>
        <time>2013-10-13T09:16:06Z</time>
      </trkpt>
      <trkpt lat="50.20318" lon="1.55013">
        <ele>4.9</ele>
        <time>2013-10-13T09:16:15Z</time>
      </trkpt>
      <trkpt lat="50.20328" lon="1.55027">
        <ele>5.2</ele>
        <time>2013-10-13T09:16:27Z</time>
      </trkpt>
      <trkpt lat="50.20339" lon="1.55041">
        <ele>5.4</ele>
        <time>2013-10-13T09:16:37Z</time>
      </trkpt>
      <trkpt lat="50.2035" lon="1.55053">
        <ele>5.7</ele>
        <time>2013-10-13T09:16:47Z</time>
      </trkpt>
      <trkpt lat="50.20362" lon="1.55066">
        <ele>6.1</ele>
        <time>2013-10-13T09:17:03Z</time>
      </trkpt>
      <trkpt lat="50.20374" lon="1.55076">
        <ele>6.4</ele>
        <time>2013-10-13T09:17:14Z</time>
      </trkpt>
      <trkpt lat="50.20386" lon="1.55087">
        <ele>6.7</ele>
        <time>2013-10-13T09:17:26Z</time>
      </trkpt>
      <trkpt lat="50.20398" lon="1.55098">
        <ele>6.9</ele>
        <time>2013-10-13T09:17:37Z</time>
      </trkpt>
      <trkpt lat="50.2041" lon="1.55112">
        <ele>6</ele>
        <time>2013-10-13T09:17:47Z</time>
      </trkpt>
      <trkpt lat="50.2042" lon="1.55127">
        <ele>4.5</ele>
        <time>2013-10-13T09:17:58Z</time>
      </trkpt>
      <trkpt lat="50.20431" lon="1.55141">
        <ele>5.3</ele>
        <time>2013-10-13T09:18:09Z</time>
      </trkpt>
      <trkpt lat="50.20442" lon="1.55156">
        <ele>6.5</ele>
        <time>2013-10-13T09:18:21Z</time>
      </trkpt>
      <trkpt lat="50.20453" lon="1.55171">
        <ele>4.5</ele>
        <time>2013-10-13T09:18:33Z</time>
      </trkpt>
      <trkpt lat="50.20467" lon="1.55174">
        <ele>5.3</ele>
        <time>2013-10-13T09:18:47Z</time>
      </trkpt>
      <trkpt lat="50.20472" lon="1.55153">
        <ele>6.8</ele>
        <time>2013-10-13T09:18:59Z</time>
      </trkpt>
      <trkpt lat="50.20485" lon="1.55146">
        <ele>6.5</ele>
        <time>2013-10-13T09:19:14Z</time>
      </trkpt>
      <trkpt lat="50.20485" lon="1.55123">
        <ele>5.8</ele>
        <time>2013-10-13T09:19:23Z</time>
      </trkpt>
      <trkpt lat="50.20486" lon="1.55101">
        <ele>7.3</ele>
        <time>2013-10-13T09:19:31Z</time>
      </trkpt>
      <trkpt lat="50.20482" lon="1.55079">
        <ele>6.4</ele>
        <time>2013-10-13T09:19:44Z</time>
      </trkpt>
      <trkpt lat="50.20475" lon="1.55059">
        <ele>4.8</ele>
        <time>2013-10-13T09:19:53Z</time>
      </trkpt>
      <trkpt lat="50.20468" lon="1.5504">
        <ele>2.4</ele>
        <time>2013-10-13T09:20:05Z</time>
      </trkpt>
      <trkpt lat="50.20459" lon="1.55021">
        <ele>2.5</ele>
        <time>2013-10-13T09:20:17Z</time>
      </trkpt>
      <trkpt lat="50.20455" lon="1.55001">
        <ele>3</ele>
        <time>2013-10-13T09:20:29Z</time>
      </trkpt>
      <trkpt lat="50.2045" lon="1.54981">
        <ele>3.3</ele>
        <time>2013-10-13T09:20:35Z</time>
      </trkpt>
      <trkpt lat="50.20449" lon="1.5496">
        <ele>4</ele>
        <time>2013-10-13T09:20:49Z</time>
      </trkpt>
      <trkpt lat="50.20453" lon="1.54938">
        <ele>4.6</ele>
        <time>2013-10-13T09:21:02Z</time>
      </trkpt>
      <trkpt lat="50.20456" lon="1.54916">
        <ele>5</ele>
        <time>2013-10-13T09:21:10Z</time>
      </trkpt>
      <trkpt lat="50.20464" lon="1.54897">
        <ele>5.9</ele>
        <time>2013-10-13T09:21:20Z</time>
      </trkpt>
      <trkpt lat="50.2047" lon="1.54877">
        <ele>7</ele>
        <time>2013-10-13T09:21:32Z</time>
      </trkpt>
      <trkpt lat="50.20479" lon="1.54858">
        <ele>8.2</ele>
        <time>2013-10-13T09:21:45Z</time>
      </trkpt>
      <trkpt lat="50.20482" lon="1.54837">
        <ele>9</ele>
        <time>2013-10-13T09:21:54Z</time>
      </trkpt>
      <trkpt lat="50.20486" lon="1.54815">
        <ele>6</ele>
        <time>2013-10-13T09:22:11Z</time>
      </trkpt>
      <trkpt lat="50.20486" lon="1.54793">
        <ele>6.3</ele>
        <time>2013-10-13T09:22:22Z</time>
      </trkpt>
      <trkpt lat="50.20487" lon="1.54771">
        <ele>6.6</ele>
        <time>2013-10-13T09:22:32Z</time>
      </trkpt>
      <trkpt lat="50.20481" lon="1.5475">
        <ele>6.9</ele>
        <time>2013-10-13T09:22:44Z</time>
      </trkpt>
      <trkpt lat="50.20481" lon="1.54729">
        <ele>7.2</ele>
        <time>2013-10-13T09:22:54Z</time>
      </trkpt>
      <trkpt lat="50.20484" lon="1.54707">
        <ele>7.5</ele>
        <time>2013-10-13T09:23:05Z</time>
      </trkpt>
      <trkpt lat="50.20478" lon="1.54687">
        <ele>7.9</ele>
        <time>2013-10-13T09:23:16Z</time>
      </trkpt>
      <trkpt lat="50.2048" lon="1.54666">
        <ele>8.1</ele>
        <time>2013-10-13T09:23:26Z</time>
      </trkpt>
      <trkpt lat="50.2048" lon="1.54643">
        <ele>8.5</ele>
        <time>2013-10-13T09:23:37Z</time>
      </trkpt>
      <trkpt lat="50.20483" lon="1.54621">
        <ele>8.7</ele>
        <time>2013-10-13T09:23:47Z</time>
      </trkpt>
      <trkpt lat="50.2048" lon="1.54599">
        <ele>8.5</ele>
        <time>2013-10-13T09:23:58Z</time>
      </trkpt>
      <trkpt lat="50.20482" lon="1.54575">
        <ele>6.6</ele>
        <time>2013-10-13T09:24:12Z</time>
      </trkpt>
      <trkpt lat="50.20478" lon="1.54555">
        <ele>7.5</ele>
        <time>2013-10-13T09:24:19Z</time>
      </trkpt>
      <trkpt lat="50.20476" lon="1.54534">
        <ele>8.9</ele>
        <time>2013-10-13T09:24:29Z</time>
      </trkpt>
      <trkpt lat="50.20475" lon="1.54512">
        <ele>10.8</ele>
        <time>2013-10-13T09:24:40Z</time>
      </trkpt>
      <trkpt lat="50.20473" lon="1.54491">
        <ele>12.1</ele>
        <time>2013-10-13T09:24:48Z</time>
      </trkpt>
      <trkpt lat="50.20468" lon="1.5447">
        <ele>13.3</ele>
        <time>2013-10-13T09:25:01Z</time>
      </trkpt>
      <trkpt lat="50.20468" lon="1.54446">
        <ele>13.9</ele>
        <time>2013-10-13T09:25:08Z</time>
      </trkpt>
      <trkpt lat="50.20469" lon="1.54425">
        <ele>15</ele>
        <time>2013-10-13T09:25:16Z</time>
      </trkpt>
      <trkpt lat="50.20474" lon="1.54403">
        <ele>15</ele>
        <time>2013-10-13T09:25:27Z</time>
      </trkpt>
      <trkpt lat="50.20474" lon="1.54379">
        <ele>18</ele>
        <time>2013-10-13T09:25:40Z</time>
      </trkpt>
      <trkpt lat="50.20479" lon="1.5436">
        <ele>17</ele>
        <time>2013-10-13T09:25:49Z</time>
      </trkpt>
      <trkpt lat="50.20484" lon="1.54339">
        <ele>18.9</ele>
        <time>2013-10-13T09:25:59Z</time>
      </trkpt>
      <trkpt lat="50.20487" lon="1.54318">
        <ele>18.5</ele>
        <time>2013-10-13T09:26:09Z</time>
      </trkpt>
      <trkpt lat="50.20496" lon="1.54305">
        <ele>15.4</ele>
        <time>2013-10-13T09:26:21Z</time>
      </trkpt>
      <trkpt lat="50.20492" lon="1.54284">
        <ele>14.1</ele>
        <time>2013-10-13T09:26:32Z</time>
      </trkpt>
      <trkpt lat="50.20481" lon="1.54268">
        <ele>13.1</ele>
        <time>2013-10-13T09:26:40Z</time>
      </trkpt>
      <trkpt lat="50.20468" lon="1.54258">
        <ele>11.6</ele>
        <time>2013-10-13T09:26:50Z</time>
      </trkpt>
      <trkpt lat="50.20454" lon="1.54251">
        <ele>8.9</ele>
        <time>2013-10-13T09:26:58Z</time>
      </trkpt>
      <trkpt lat="50.20442" lon="1.54239">
        <ele>6.2</ele>
        <time>2013-10-13T09:27:09Z</time>
      </trkpt>
      <trkpt lat="50.2043" lon="1.54226">
        <ele>4.1</ele>
        <time>2013-10-13T09:27:20Z</time>
      </trkpt>
      <trkpt lat="50.20417" lon="1.54215">
        <ele>1.8</ele>
        <time>2013-10-13T09:27:31Z</time>
      </trkpt>
      <trkpt lat="50.20411" lon="1.54194">
        <ele>1.8</ele>
        <time>2013-10-13T09:27:41Z</time>
      </trkpt>
      <trkpt lat="50.20407" lon="1.54174">
        <ele>3.7</ele>
        <time>2013-10-13T09:27:51Z</time>
      </trkpt>
      <trkpt lat="50.20401" lon="1.54154">
        <ele>4.7</ele>
        <time>2013-10-13T09:28:00Z</time>
      </trkpt>
      <trkpt lat="50.20401" lon="1.54117">
        <ele>4.6</ele>
        <time>2013-10-13T09:28:12Z</time>
      </trkpt>
      <trkpt lat="50.20401" lon="1.54117">
        <ele>4.6</ele>
        <time>2013-10-13T09:31:37Z</time>
      </trkpt>
      <trkpt lat="50.20405" lon="1.54102">
        <ele>3.5</ele>
        <time>2013-10-13T09:31:44Z</time>
      </trkpt>
      <trkpt lat="50.2041" lon="1.54081">
        <ele>2.9</ele>
        <time>2013-10-13T09:32:04Z</time>
      </trkpt>
      <trkpt lat="50.20406" lon="1.54058">
        <ele>2.2</ele>
        <time>2013-10-13T09:32:12Z</time>
      </trkpt>
      <trkpt lat="50.20406" lon="1.54036">
        <ele>1.2</ele>
        <time>2013-10-13T09:32:24Z</time>
      </trkpt>
      <trkpt lat="50.2041" lon="1.54015">
        <ele>3.6</ele>
        <time>2013-10-13T09:32:38Z</time>
      </trkpt>
      <trkpt lat="50.20411" lon="1.53992">
        <ele>-1.4</ele>
        <time>2013-10-13T09:32:53Z</time>
      </trkpt>
      <trkpt lat="50.2041" lon="1.5397">
        <ele>-2.4</ele>
        <time>2013-10-13T09:33:02Z</time>
      </trkpt>
      <trkpt lat="50.2041" lon="1.53948">
        <ele>-3.5</ele>
        <time>2013-10-13T09:33:12Z</time>
      </trkpt>
      <trkpt lat="50.2041" lon="1.53927">
        <ele>-4.7</ele>
        <time>2013-10-13T09:33:23Z</time>
      </trkpt>
      <trkpt lat="50.20413" lon="1.53905">
        <ele>-3.8</ele>
        <time>2013-10-13T09:33:36Z</time>
      </trkpt>
      <trkpt lat="50.20412" lon="1.53884">
        <ele>-2.6</ele>
        <time>2013-10-13T09:33:46Z</time>
      </trkpt>
      <trkpt lat="50.20418" lon="1.53863">
        <ele>-1.1</ele>
        <time>2013-10-13T09:33:59Z</time>
      </trkpt>
      <trkpt lat="50.20426" lon="1.53844">
        <ele>0.6</ele>
        <time>2013-10-13T09:34:11Z</time>
      </trkpt>
      <trkpt lat="50.20437" lon="1.53831">
        <ele>2.7</ele>
        <time>2013-10-13T09:34:26Z</time>
      </trkpt>
      <trkpt lat="50.20444" lon="1.53827">
        <ele>3.6</ele>
        <time>2013-10-13T09:34:33Z</time>
      </trkpt>
      <trkpt lat="50.20456" lon="1.53838">
        <ele>5.4</ele>
        <time>2013-10-13T09:34:47Z</time>
      </trkpt>
      <trkpt lat="50.20458" lon="1.5384">
        <ele>6.4</ele>
        <time>2013-10-13T09:34:55Z</time>
      </trkpt>
      <trkpt lat="50.20457" lon="1.53838">
        <ele>7</ele>
        <time>2013-10-13T09:34:59Z</time>
      </trkpt>
      <trkpt lat="50.20457" lon="1.53857">
        <ele>7.6</ele>
        <time>2013-10-13T09:35:04Z</time>
      </trkpt>
      <trkpt lat="50.20472" lon="1.5386">
        <ele>8.3</ele>
        <time>2013-10-13T09:35:10Z</time>
      </trkpt>
      <trkpt lat="50.20485" lon="1.53865">
        <ele>9</ele>
        <time>2013-10-13T09:35:18Z</time>
      </trkpt>
      <trkpt lat="50.20497" lon="1.53881">
        <ele>8.4</ele>
        <time>2013-10-13T09:35:27Z</time>
      </trkpt>
      <trkpt lat="50.20508" lon="1.53891">
        <ele>7.2</ele>
        <time>2013-10-13T09:35:35Z</time>
      </trkpt>
      <trkpt lat="50.20517" lon="1.53909">
        <ele>5.8</ele>
        <time>2013-10-13T09:35:45Z</time>
      </trkpt>
      <trkpt lat="50.20528" lon="1.53924">
        <ele>5.5</ele>
        <time>2013-10-13T09:35:56Z</time>
      </trkpt>
      <trkpt lat="50.2054" lon="1.53936">
        <ele>6.6</ele>
        <time>2013-10-13T09:36:08Z</time>
      </trkpt>
      <trkpt lat="50.20547" lon="1.53955">
        <ele>7.5</ele>
        <time>2013-10-13T09:36:18Z</time>
      </trkpt>
      <trkpt lat="50.20558" lon="1.53971">
        <ele>7.7</ele>
        <time>2013-10-13T09:36:26Z</time>
      </trkpt>
      <trkpt lat="50.20563" lon="1.53991">
        <ele>6.6</ele>
        <time>2013-10-13T09:36:36Z</time>
      </trkpt>
      <trkpt lat="50.20572" lon="1.54008">
        <ele>5.4</ele>
        <time>2013-10-13T09:36:47Z</time>
      </trkpt>
      <trkpt lat="50.20583" lon="1.54021">
        <ele>4.6</ele>
        <time>2013-10-13T09:36:59Z</time>
      </trkpt>
      <trkpt lat="50.20595" lon="1.54031">
        <ele>4</ele>
        <time>2013-10-13T09:37:10Z</time>
      </trkpt>
      <trkpt lat="50.20608" lon="1.54041">
        <ele>3.5</ele>
        <time>2013-10-13T09:37:19Z</time>
      </trkpt>
      <trkpt lat="50.20622" lon="1.54037">
        <ele>3.1</ele>
        <time>2013-10-13T09:37:26Z</time>
      </trkpt>
      <trkpt lat="50.20635" lon="1.54026">
        <ele>2.7</ele>
        <time>2013-10-13T09:37:34Z</time>
      </trkpt>
      <trkpt lat="50.20648" lon="1.54018">
        <ele>2.2</ele>
        <time>2013-10-13T09:37:44Z</time>
      </trkpt>
      <trkpt lat="50.20655" lon="1.54025">
        <ele>3.6</ele>
        <time>2013-10-13T09:37:53Z</time>
      </trkpt>
      <trkpt lat="50.20646" lon="1.54043">
        <ele>4.8</ele>
        <time>2013-10-13T09:38:02Z</time>
      </trkpt>
      <trkpt lat="50.20644" lon="1.54064">
        <ele>4.1</ele>
        <time>2013-10-13T09:38:18Z</time>
      </trkpt>
      <trkpt lat="50.20649" lon="1.54083">
        <ele>3.8</ele>
        <time>2013-10-13T09:38:26Z</time>
      </trkpt>
      <trkpt lat="50.20648" lon="1.54107">
        <ele>3.3</ele>
        <time>2013-10-13T09:38:36Z</time>
      </trkpt>
      <trkpt lat="50.20648" lon="1.54129">
        <ele>2.9</ele>
        <time>2013-10-13T09:38:46Z</time>
      </trkpt>
      <trkpt lat="50.20645" lon="1.54152">
        <ele>2.4</ele>
        <time>2013-10-13T09:38:58Z</time>
      </trkpt>
      <trkpt lat="50.20648" lon="1.54173">
        <ele>2</ele>
        <time>2013-10-13T09:39:06Z</time>
      </trkpt>
      <trkpt lat="50.20656" lon="1.5419">
        <ele>-0.2</ele>
        <time>2013-10-13T09:39:19Z</time>
      </trkpt>
      <trkpt lat="50.20664" lon="1.54208">
        <ele>-0.6</ele>
        <time>2013-10-13T09:39:26Z</time>
      </trkpt>
      <trkpt lat="50.20669" lon="1.54229">
        <ele>0.5</ele>
        <time>2013-10-13T09:39:33Z</time>
      </trkpt>
      <trkpt lat="50.2067" lon="1.54252">
        <ele>2.1</ele>
        <time>2013-10-13T09:39:44Z</time>
      </trkpt>
      <trkpt lat="50.20673" lon="1.54274">
        <ele>3.5</ele>
        <time>2013-10-13T09:39:54Z</time>
      </trkpt>
      <trkpt lat="50.20677" lon="1.54295">
        <ele>4.7</ele>
        <time>2013-10-13T09:40:02Z</time>
      </trkpt>
      <trkpt lat="50.20683" lon="1.54314">
        <ele>5.7</ele>
        <time>2013-10-13T09:40:13Z</time>
      </trkpt>
      <trkpt lat="50.20688" lon="1.54334">
        <ele>6.6</ele>
        <time>2013-10-13T09:40:25Z</time>
      </trkpt>
      <trkpt lat="50.20699" lon="1.54347">
        <ele>6.9</ele>
        <time>2013-10-13T09:40:33Z</time>
      </trkpt>
      <trkpt lat="50.20712" lon="1.54357">
        <ele>6.4</ele>
        <time>2013-10-13T09:40:41Z</time>
      </trkpt>
      <trkpt lat="50.20723" lon="1.54371">
        <ele>8.7</ele>
        <time>2013-10-13T09:40:53Z</time>
      </trkpt>
      <trkpt lat="50.20727" lon="1.54393">
        <ele>10</ele>
        <time>2013-10-13T09:41:04Z</time>
      </trkpt>
      <trkpt lat="50.2074" lon="1.54404">
        <ele>9.5</ele>
        <time>2013-10-13T09:41:13Z</time>
      </trkpt>
      <trkpt lat="50.20754" lon="1.54411">
        <ele>8.9</ele>
        <time>2013-10-13T09:41:21Z</time>
      </trkpt>
      <trkpt lat="50.2077" lon="1.54414">
        <ele>8.5</ele>
        <time>2013-10-13T09:41:26Z</time>
      </trkpt>
      <trkpt lat="50.20778" lon="1.54433">
        <ele>7.7</ele>
        <time>2013-10-13T09:41:38Z</time>
      </trkpt>
      <trkpt lat="50.20777" lon="1.54456">
        <ele>6.1</ele>
        <time>2013-10-13T09:41:52Z</time>
      </trkpt>
      <trkpt lat="50.20781" lon="1.54477">
        <ele>4.5</ele>
        <time>2013-10-13T09:42:01Z</time>
      </trkpt>
      <trkpt lat="50.20784" lon="1.54499">
        <ele>1.8</ele>
        <time>2013-10-13T09:42:12Z</time>
      </trkpt>
      <trkpt lat="50.20797" lon="1.54511">
        <ele>4.5</ele>
        <time>2013-10-13T09:42:26Z</time>
      </trkpt>
      <trkpt lat="50.20811" lon="1.54517">
        <ele>5.4</ele>
        <time>2013-10-13T09:42:35Z</time>
      </trkpt>
      <trkpt lat="50.20824" lon="1.54525">
        <ele>6.4</ele>
        <time>2013-10-13T09:42:46Z</time>
      </trkpt>
      <trkpt lat="50.20837" lon="1.54529">
        <ele>7.5</ele>
        <time>2013-10-13T09:42:58Z</time>
      </trkpt>
      <trkpt lat="50.20852" lon="1.54528">
        <ele>8.5</ele>
        <time>2013-10-13T09:43:07Z</time>
      </trkpt>
      <trkpt lat="50.20865" lon="1.54523">
        <ele>9.3</ele>
        <time>2013-10-13T09:43:15Z</time>
      </trkpt>
      <trkpt lat="50.20879" lon="1.54518">
        <ele>10.3</ele>
        <time>2013-10-13T09:43:25Z</time>
      </trkpt>
      <trkpt lat="50.20891" lon="1.54509">
        <ele>11.2</ele>
        <time>2013-10-13T09:43:35Z</time>
      </trkpt>
      <trkpt lat="50.20905" lon="1.54505">
        <ele>12</ele>
        <time>2013-10-13T09:43:45Z</time>
      </trkpt>
      <trkpt lat="50.20919" lon="1.54506">
        <ele>12.8</ele>
        <time>2013-10-13T09:43:55Z</time>
      </trkpt>
      <trkpt lat="50.20933" lon="1.54514">
        <ele>14.4</ele>
        <time>2013-10-13T09:44:02Z</time>
      </trkpt>
      <trkpt lat="50.20944" lon="1.54526">
        <ele>15.8</ele>
        <time>2013-10-13T09:44:10Z</time>
      </trkpt>
      <trkpt lat="50.20951" lon="1.54545">
        <ele>14.8</ele>
        <time>2013-10-13T09:44:20Z</time>
      </trkpt>
      <trkpt lat="50.20954" lon="1.54567">
        <ele>12.5</ele>
        <time>2013-10-13T09:44:34Z</time>
      </trkpt>
      <trkpt lat="50.20958" lon="1.54588">
        <ele>10.7</ele>
        <time>2013-10-13T09:44:47Z</time>
      </trkpt>
      <trkpt lat="50.20961" lon="1.54611">
        <ele>9.3</ele>
        <time>2013-10-13T09:44:57Z</time>
      </trkpt>
      <trkpt lat="50.20963" lon="1.54633">
        <ele>7.1</ele>
        <time>2013-10-13T09:45:06Z</time>
      </trkpt>
      <trkpt lat="50.20965" lon="1.54656">
        <ele>8.3</ele>
        <time>2013-10-13T09:45:15Z</time>
      </trkpt>
      <trkpt lat="50.20966" lon="1.54679">
        <ele>7.6</ele>
        <time>2013-10-13T09:45:29Z</time>
      </trkpt>
      <trkpt lat="50.20968" lon="1.54701">
        <ele>9</ele>
        <time>2013-10-13T09:45:38Z</time>
      </trkpt>
      <trkpt lat="50.2097" lon="1.54721">
        <ele>4.1</ele>
        <time>2013-10-13T09:45:47Z</time>
      </trkpt>
      <trkpt lat="50.20971" lon="1.54743">
        <ele>4</ele>
        <time>2013-10-13T09:46:00Z</time>
      </trkpt>
      <trkpt lat="50.20976" lon="1.54763">
        <ele>5.2</ele>
        <time>2013-10-13T09:46:09Z</time>
      </trkpt>
      <trkpt lat="50.20977" lon="1.54786">
        <ele>6.8</ele>
        <time>2013-10-13T09:46:20Z</time>
      </trkpt>
      <trkpt lat="50.2098" lon="1.54808">
        <ele>7.7</ele>
        <time>2013-10-13T09:46:30Z</time>
      </trkpt>
      <trkpt lat="50.20978" lon="1.5483">
        <ele>4.4</ele>
        <time>2013-10-13T09:46:42Z</time>
      </trkpt>
      <trkpt lat="50.20977" lon="1.54852">
        <ele>3.3</ele>
        <time>2013-10-13T09:46:50Z</time>
      </trkpt>
      <trkpt lat="50.20973" lon="1.54873">
        <ele>4.6</ele>
        <time>2013-10-13T09:47:02Z</time>
      </trkpt>
      <trkpt lat="50.2097" lon="1.54894">
        <ele>5.7</ele>
        <time>2013-10-13T09:47:13Z</time>
      </trkpt>
      <trkpt lat="50.20967" lon="1.54916">
        <ele>6.9</ele>
        <time>2013-10-13T09:47:24Z</time>
      </trkpt>
      <trkpt lat="50.20962" lon="1.54937">
        <ele>6.3</ele>
        <time>2013-10-13T09:47:36Z</time>
      </trkpt>
      <trkpt lat="50.20959" lon="1.54958">
        <ele>5.7</ele>
        <time>2013-10-13T09:47:47Z</time>
      </trkpt>
      <trkpt lat="50.20953" lon="1.54979">
        <ele>4.9</ele>
        <time>2013-10-13T09:48:00Z</time>
      </trkpt>
      <trkpt lat="50.20949" lon="1.55">
        <ele>4.3</ele>
        <time>2013-10-13T09:48:10Z</time>
      </trkpt>
      <trkpt lat="50.20945" lon="1.55022">
        <ele>2.8</ele>
        <time>2013-10-13T09:48:18Z</time>
      </trkpt>
      <trkpt lat="50.20938" lon="1.55043">
        <ele>-0.3</ele>
        <time>2013-10-13T09:48:28Z</time>
      </trkpt>
      <trkpt lat="50.2093" lon="1.55062">
        <ele>-0.9</ele>
        <time>2013-10-13T09:48:37Z</time>
      </trkpt>
      <trkpt lat="50.20922" lon="1.55079">
        <ele>-0.4</ele>
        <time>2013-10-13T09:48:46Z</time>
      </trkpt>
      <trkpt lat="50.20912" lon="1.55096">
        <ele>4.7</ele>
        <time>2013-10-13T09:48:56Z</time>
      </trkpt>
      <trkpt lat="50.20905" lon="1.55116">
        <ele>2.5</ele>
        <time>2013-10-13T09:49:06Z</time>
      </trkpt>
      <trkpt lat="50.20896" lon="1.55133">
        <ele>4.1</ele>
        <time>2013-10-13T09:49:19Z</time>
      </trkpt>
      <trkpt lat="50.20891" lon="1.55153">
        <ele>5.6</ele>
        <time>2013-10-13T09:49:32Z</time>
      </trkpt>
      <trkpt lat="50.20895" lon="1.55175">
        <ele>4.2</ele>
        <time>2013-10-13T09:49:41Z</time>
      </trkpt>
      <trkpt lat="50.20907" lon="1.55188">
        <ele>4.2</ele>
        <time>2013-10-13T09:49:52Z</time>
      </trkpt>
      <trkpt lat="50.20921" lon="1.55196">
        <ele>6.2</ele>
        <time>2013-10-13T09:50:04Z</time>
      </trkpt>
      <trkpt lat="50.20934" lon="1.55195">
        <ele>7.1</ele>
        <time>2013-10-13T09:50:11Z</time>
      </trkpt>
      <trkpt lat="50.20949" lon="1.55196">
        <ele>8</ele>
        <time>2013-10-13T09:50:21Z</time>
      </trkpt>
      <trkpt lat="50.20963" lon="1.5519">
        <ele>8.7</ele>
        <time>2013-10-13T09:50:29Z</time>
      </trkpt>
      <trkpt lat="50.20976" lon="1.55189">
        <ele>10.5</ele>
        <time>2013-10-13T09:50:39Z</time>
      </trkpt>
      <trkpt lat="50.2099" lon="1.55187">
        <ele>9.5</ele>
        <time>2013-10-13T09:50:50Z</time>
      </trkpt>
      <trkpt lat="50.21005" lon="1.55188">
        <ele>13.8</ele>
        <time>2013-10-13T09:51:00Z</time>
      </trkpt>
      <trkpt lat="50.21019" lon="1.55186">
        <ele>8.6</ele>
        <time>2013-10-13T09:51:12Z</time>
      </trkpt>
      <trkpt lat="50.21032" lon="1.55192">
        <ele>6.7</ele>
        <time>2013-10-13T09:51:23Z</time>
      </trkpt>
      <trkpt lat="50.21047" lon="1.55196">
        <ele>4.7</ele>
        <time>2013-10-13T09:51:34Z</time>
      </trkpt>
      <trkpt lat="50.2106" lon="1.55203">
        <ele>4</ele>
        <time>2013-10-13T09:51:44Z</time>
      </trkpt>
      <trkpt lat="50.21075" lon="1.55204">
        <ele>4.4</ele>
        <time>2013-10-13T09:51:55Z</time>
      </trkpt>
      <trkpt lat="50.21088" lon="1.55211">
        <ele>10.7</ele>
        <time>2013-10-13T09:52:08Z</time>
      </trkpt>
      <trkpt lat="50.21101" lon="1.55212">
        <ele>8</ele>
        <time>2013-10-13T09:52:18Z</time>
      </trkpt>
      <trkpt lat="50.21116" lon="1.5521">
        <ele>6.6</ele>
        <time>2013-10-13T09:52:29Z</time>
      </trkpt>
      <trkpt lat="50.2113" lon="1.55205">
        <ele>5.6</ele>
        <time>2013-10-13T09:52:38Z</time>
      </trkpt>
      <trkpt lat="50.21144" lon="1.55206">
        <ele>4.3</ele>
        <time>2013-10-13T09:52:48Z</time>
      </trkpt>
      <trkpt lat="50.21157" lon="1.55216">
        <ele>1.7</ele>
        <time>2013-10-13T09:53:00Z</time>
      </trkpt>
      <trkpt lat="50.21161" lon="1.55237">
        <ele>3.3</ele>
        <time>2013-10-13T09:53:11Z</time>
      </trkpt>
      <trkpt lat="50.21165" lon="1.55259">
        <ele>6.3</ele>
        <time>2013-10-13T09:53:23Z</time>
      </trkpt>
      <trkpt lat="50.2117" lon="1.5528">
        <ele>7.7</ele>
        <time>2013-10-13T09:53:35Z</time>
      </trkpt>
      <trkpt lat="50.21172" lon="1.55302">
        <ele>9</ele>
        <time>2013-10-13T09:53:45Z</time>
      </trkpt>
      <trkpt lat="50.21176" lon="1.55323">
        <ele>10.1</ele>
        <time>2013-10-13T09:53:54Z</time>
      </trkpt>
      <trkpt lat="50.21189" lon="1.55334">
        <ele>11.5</ele>
        <time>2013-10-13T09:54:05Z</time>
      </trkpt>
      <trkpt lat="50.21204" lon="1.5534">
        <ele>13.3</ele>
        <time>2013-10-13T09:54:13Z</time>
      </trkpt>
      <trkpt lat="50.21218" lon="1.55344">
        <ele>14.8</ele>
        <time>2013-10-13T09:54:23Z</time>
      </trkpt>
      <trkpt lat="50.21232" lon="1.55346">
        <ele>12.8</ele>
        <time>2013-10-13T09:54:32Z</time>
      </trkpt>
      <trkpt lat="50.21245" lon="1.55349">
        <ele>12.6</ele>
        <time>2013-10-13T09:54:43Z</time>
      </trkpt>
      <trkpt lat="50.21259" lon="1.55348">
        <ele>12.2</ele>
        <time>2013-10-13T09:54:57Z</time>
      </trkpt>
      <trkpt lat="50.21273" lon="1.55352">
        <ele>11.7</ele>
        <time>2013-10-13T09:55:06Z</time>
      </trkpt>
      <trkpt lat="50.21287" lon="1.55358">
        <ele>10.3</ele>
        <time>2013-10-13T09:55:14Z</time>
      </trkpt>
      <trkpt lat="50.21295" lon="1.55375">
        <ele>8.7</ele>
        <time>2013-10-13T09:55:24Z</time>
      </trkpt>
      <trkpt lat="50.21295" lon="1.55398">
        <ele>5.7</ele>
        <time>2013-10-13T09:55:36Z</time>
      </trkpt>
      <trkpt lat="50.21294" lon="1.55421">
        <ele>8</ele>
        <time>2013-10-13T09:55:45Z</time>
      </trkpt>
      <trkpt lat="50.21296" lon="1.55444">
        <ele>5.1</ele>
        <time>2013-10-13T09:55:55Z</time>
      </trkpt>
      <trkpt lat="50.213" lon="1.55466">
        <ele>0.5</ele>
        <time>2013-10-13T09:56:07Z</time>
      </trkpt>
      <trkpt lat="50.21304" lon="1.55487">
        <ele>2.4</ele>
        <time>2013-10-13T09:56:18Z</time>
      </trkpt>
      <trkpt lat="50.21308" lon="1.55508">
        <ele>4.4</ele>
        <time>2013-10-13T09:56:28Z</time>
      </trkpt>
      <trkpt lat="50.21309" lon="1.55529">
        <ele>5.9</ele>
        <time>2013-10-13T09:56:38Z</time>
      </trkpt>
      <trkpt lat="50.21313" lon="1.5555">
        <ele>7.3</ele>
        <time>2013-10-13T09:56:48Z</time>
      </trkpt>
      <trkpt lat="50.21319" lon="1.5557">
        <ele>9.9</ele>
        <time>2013-10-13T09:57:00Z</time>
      </trkpt>
      <trkpt lat="50.21323" lon="1.55592">
        <ele>12.1</ele>
        <time>2013-10-13T09:57:12Z</time>
      </trkpt>
      <trkpt lat="50.21335" lon="1.55628">
        <ele>10</ele>
        <time>2013-10-13T09:57:29Z</time>
      </trkpt>
      <trkpt lat="50.21335" lon="1.55628">
        <ele>10</ele>
        <time>2013-10-13T10:01:47Z</time>
      </trkpt>
      <trkpt lat="50.21344" lon="1.55642">
        <ele>6.3</ele>
        <time>2013-10-13T10:01:49Z</time>
      </trkpt>
      <trkpt lat="50.21357" lon="1.55637">
        <ele>6.1</ele>
        <time>2013-10-13T10:02:00Z</time>
      </trkpt>
      <trkpt lat="50.21369" lon="1.55626">
        <ele>6.1</ele>
        <time>2013-10-13T10:02:09Z</time>
      </trkpt>
      <trkpt lat="50.21382" lon="1.55615">
        <ele>6.3</ele>
        <time>2013-10-13T10:02:20Z</time>
      </trkpt>
      <trkpt lat="50.21394" lon="1.55603">
        <ele>6.6</ele>
        <time>2013-10-13T10:02:35Z</time>
      </trkpt>
      <trkpt lat="50.21407" lon="1.55595">
        <ele>6.8</ele>
        <time>2013-10-13T10:02:46Z</time>
      </trkpt>
      <trkpt lat="50.21421" lon="1.5559">
        <ele>7</ele>
        <time>2013-10-13T10:02:57Z</time>
      </trkpt>
      <trkpt lat="50.21433" lon="1.55582">
        <ele>7.2</ele>
        <time>2013-10-13T10:03:08Z</time>
      </trkpt>
      <trkpt lat="50.21447" lon="1.55575">
        <ele>7.5</ele>
        <time>2013-10-13T10:03:20Z</time>
      </trkpt>
      <trkpt lat="50.21462" lon="1.5557">
        <ele>7.7</ele>
        <time>2013-10-13T10:03:32Z</time>
      </trkpt>
      <trkpt lat="50.21475" lon="1.55573">
        <ele>7.9</ele>
        <time>2013-10-13T10:03:43Z</time>
      </trkpt>
      <trkpt lat="50.21486" lon="1.55589">
        <ele>8.1</ele>
        <time>2013-10-13T10:03:57Z</time>
      </trkpt>
      <trkpt lat="50.21485" lon="1.55612">
        <ele>8.5</ele>
        <time>2013-10-13T10:04:14Z</time>
      </trkpt>
      <trkpt lat="50.21489" lon="1.55633">
        <ele>8.6</ele>
        <time>2013-10-13T10:04:20Z</time>
      </trkpt>
      <trkpt lat="50.215" lon="1.55647">
        <ele>8.8</ele>
        <time>2013-10-13T10:04:33Z</time>
      </trkpt>
      <trkpt lat="50.21515" lon="1.55644">
        <ele>8.7</ele>
        <time>2013-10-13T10:04:46Z</time>
      </trkpt>
      <trkpt lat="50.21528" lon="1.55638">
        <ele>7.8</ele>
        <time>2013-10-13T10:04:56Z</time>
      </trkpt>
      <trkpt lat="50.21541" lon="1.55626">
        <ele>6.9</ele>
        <time>2013-10-13T10:05:06Z</time>
      </trkpt>
      <trkpt lat="50.21553" lon="1.55613">
        <ele>6.1</ele>
        <time>2013-10-13T10:05:17Z</time>
      </trkpt>
      <trkpt lat="50.21567" lon="1.55606">
        <ele>7.1</ele>
        <time>2013-10-13T10:05:32Z</time>
      </trkpt>
      <trkpt lat="50.21573" lon="1.55626">
        <ele>8.4</ele>
        <time>2013-10-13T10:05:49Z</time>
      </trkpt>
      <trkpt lat="50.21572" lon="1.55643">
        <ele>9</ele>
        <time>2013-10-13T10:05:58Z</time>
      </trkpt>
      <trkpt lat="50.21568" lon="1.55649">
        <ele>9.3</ele>
        <time>2013-10-13T10:06:02Z</time>
      </trkpt>
      <trkpt lat="50.21577" lon="1.55655">
        <ele>10</ele>
        <time>2013-10-13T10:06:12Z</time>
      </trkpt>
      <trkpt lat="50.21575" lon="1.55676">
        <ele>8.8</ele>
        <time>2013-10-13T10:06:21Z</time>
      </trkpt>
      <trkpt lat="50.2157" lon="1.55698">
        <ele>7.5</ele>
        <time>2013-10-13T10:06:31Z</time>
      </trkpt>
      <trkpt lat="50.21565" lon="1.55711">
        <ele>6.7</ele>
        <time>2013-10-13T10:06:38Z</time>
      </trkpt>
      <trkpt lat="50.21559" lon="1.55731">
        <ele>4.9</ele>
        <time>2013-10-13T10:06:59Z</time>
      </trkpt>
      <trkpt lat="50.21551" lon="1.55751">
        <ele>4.1</ele>
        <time>2013-10-13T10:07:08Z</time>
      </trkpt>
      <trkpt lat="50.21552" lon="1.55772">
        <ele>8.4</ele>
        <time>2013-10-13T10:07:26Z</time>
      </trkpt>
      <trkpt lat="50.21561" lon="1.55789">
        <ele>9.4</ele>
        <time>2013-10-13T10:07:41Z</time>
      </trkpt>
      <trkpt lat="50.2156" lon="1.55811">
        <ele>10</ele>
        <time>2013-10-13T10:07:51Z</time>
      </trkpt>
      <trkpt lat="50.21561" lon="1.55835">
        <ele>10.7</ele>
        <time>2013-10-13T10:08:01Z</time>
      </trkpt>
      <trkpt lat="50.21568" lon="1.55854">
        <ele>10.2</ele>
        <time>2013-10-13T10:08:10Z</time>
      </trkpt>
      <trkpt lat="50.21572" lon="1.55875">
        <ele>7.7</ele>
        <time>2013-10-13T10:08:24Z</time>
      </trkpt>
      <trkpt lat="50.21575" lon="1.55897">
        <ele>5.7</ele>
        <time>2013-10-13T10:08:38Z</time>
      </trkpt>
      <trkpt lat="50.21574" lon="1.55919">
        <ele>3.9</ele>
        <time>2013-10-13T10:08:51Z</time>
      </trkpt>
      <trkpt lat="50.2157" lon="1.55939">
        <ele>2.9</ele>
        <time>2013-10-13T10:09:01Z</time>
      </trkpt>
      <trkpt lat="50.2157" lon="1.55961">
        <ele>1.4</ele>
        <time>2013-10-13T10:09:15Z</time>
      </trkpt>
      <trkpt lat="50.21576" lon="1.5598">
        <ele>6.7</ele>
        <time>2013-10-13T10:09:33Z</time>
      </trkpt>
      <trkpt lat="50.21577" lon="1.56003">
        <ele>-0.5</ele>
        <time>2013-10-13T10:09:44Z</time>
      </trkpt>
      <trkpt lat="50.21576" lon="1.56025">
        <ele>-1.5</ele>
        <time>2013-10-13T10:09:56Z</time>
      </trkpt>
      <trkpt lat="50.21577" lon="1.56047">
        <ele>-2.3</ele>
        <time>2013-10-13T10:10:07Z</time>
      </trkpt>
      <trkpt lat="50.2158" lon="1.56069">
        <ele>-2.6</ele>
        <time>2013-10-13T10:10:20Z</time>
      </trkpt>
      <trkpt lat="50.21589" lon="1.56087">
        <ele>-1.2</ele>
        <time>2013-10-13T10:10:33Z</time>
      </trkpt>
      <trkpt lat="50.21596" lon="1.56105">
        <ele>0.6</ele>
        <time>2013-10-13T10:10:46Z</time>
      </trkpt>
      <trkpt lat="50.21599" lon="1.56126">
        <ele>5</ele>
        <time>2013-10-13T10:11:02Z</time>
      </trkpt>
      <trkpt lat="50.21599" lon="1.56148">
        <ele>5</ele>
        <time>2013-10-13T10:11:14Z</time>
      </trkpt>
      <trkpt lat="50.21603" lon="1.56167">
        <ele>3.4</ele>
        <time>2013-10-13T10:11:23Z</time>
      </trkpt>
      <trkpt lat="50.21606" lon="1.56189">
        <ele>2.4</ele>
        <time>2013-10-13T10:11:38Z</time>
      </trkpt>
      <trkpt lat="50.21607" lon="1.56212">
        <ele>1.8</ele>
        <time>2013-10-13T10:11:51Z</time>
      </trkpt>
      <trkpt lat="50.21606" lon="1.56234">
        <ele>1.2</ele>
        <time>2013-10-13T10:12:04Z</time>
      </trkpt>
      <trkpt lat="50.21611" lon="1.56255">
        <ele>0.6</ele>
        <time>2013-10-13T10:12:16Z</time>
      </trkpt>
      <trkpt lat="50.21611" lon="1.56278">
        <ele>7</ele>
        <time>2013-10-13T10:12:30Z</time>
      </trkpt>
      <trkpt lat="50.21612" lon="1.563">
        <ele>1.2</ele>
        <time>2013-10-13T10:12:40Z</time>
      </trkpt>
      <trkpt lat="50.21612" lon="1.56323">
        <ele>3</ele>
        <time>2013-10-13T10:12:56Z</time>
      </trkpt>
      <trkpt lat="50.21616" lon="1.56343">
        <ele>0.3</ele>
        <time>2013-10-13T10:13:09Z</time>
      </trkpt>
      <trkpt lat="50.21623" lon="1.56363">
        <ele>1.9</ele>
        <time>2013-10-13T10:13:18Z</time>
      </trkpt>
      <trkpt lat="50.21628" lon="1.5637">
        <ele>3</ele>
        <time>2013-10-13T10:13:24Z</time>
      </trkpt>
      <trkpt lat="50.21618" lon="1.56386">
        <ele>3.5</ele>
        <time>2013-10-13T10:13:36Z</time>
      </trkpt>
      <trkpt lat="50.21615" lon="1.56408">
        <ele>2.3</ele>
        <time>2013-10-13T10:13:50Z</time>
      </trkpt>
      <trkpt lat="50.21618" lon="1.5643">
        <ele>1.1</ele>
        <time>2013-10-13T10:14:04Z</time>
      </trkpt>
      <trkpt lat="50.21614" lon="1.56452">
        <ele>3.1</ele>
        <time>2013-10-13T10:14:15Z</time>
      </trkpt>
      <trkpt lat="50.21611" lon="1.56472">
        <ele>1.2</ele>
        <time>2013-10-13T10:14:28Z</time>
      </trkpt>
      <trkpt lat="50.21606" lon="1.56493">
        <ele>4.8</ele>
        <time>2013-10-13T10:14:44Z</time>
      </trkpt>
      <trkpt lat="50.21597" lon="1.56512">
        <ele>6.8</ele>
        <time>2013-10-13T10:14:53Z</time>
      </trkpt>
      <trkpt lat="50.21598" lon="1.56533">
        <ele>7.4</ele>
        <time>2013-10-13T10:15:03Z</time>
      </trkpt>
      <trkpt lat="50.21602" lon="1.56553">
        <ele>8</ele>
        <time>2013-10-13T10:15:14Z</time>
      </trkpt>
      <trkpt lat="50.21591" lon="1.56567">
        <ele>8.7</ele>
        <time>2013-10-13T10:15:29Z</time>
      </trkpt>
      <trkpt lat="50.21579" lon="1.56578">
        <ele>9.3</ele>
        <time>2013-10-13T10:15:39Z</time>
      </trkpt>
      <trkpt lat="50.21566" lon="1.56588">
        <ele>9.7</ele>
        <time>2013-10-13T10:15:48Z</time>
      </trkpt>
      <trkpt lat="50.21552" lon="1.56596">
        <ele>13</ele>
        <time>2013-10-13T10:16:11Z</time>
      </trkpt>
      <trkpt lat="50.21541" lon="1.56608">
        <ele>14.1</ele>
        <time>2013-10-13T10:16:19Z</time>
      </trkpt>
      <trkpt lat="50.21528" lon="1.56618">
        <ele>15.8</ele>
        <time>2013-10-13T10:16:31Z</time>
      </trkpt>
      <trkpt lat="50.21515" lon="1.56629">
        <ele>17.2</ele>
        <time>2013-10-13T10:16:46Z</time>
      </trkpt>
      <trkpt lat="50.21505" lon="1.56642">
        <ele>19</ele>
        <time>2013-10-13T10:17:05Z</time>
      </trkpt>
      <trkpt lat="50.21501" lon="1.5665">
        <ele>14.9</ele>
        <time>2013-10-13T10:17:18Z</time>
      </trkpt>
      <trkpt lat="50.215" lon="1.56657">
        <ele>16.4</ele>
        <time>2013-10-13T10:17:26Z</time>
      </trkpt>
      <trkpt lat="50.2149" lon="1.56651">
        <ele>11.1</ele>
        <time>2013-10-13T10:17:37Z</time>
      </trkpt>
      <trkpt lat="50.2149" lon="1.56651">
        <ele>11.1</ele>
        <time>2013-10-13T10:19:23Z</time>
      </trkpt>
      <trkpt lat="50.21496" lon="1.56645">
        <ele>6.2</ele>
        <time>2013-10-13T10:19:30Z</time>
      </trkpt>
      <trkpt lat="50.21508" lon="1.56656">
        <ele>7</ele>
        <time>2013-10-13T10:19:50Z</time>
      </trkpt>
      <trkpt lat="50.21508" lon="1.56658">
        <ele>7</ele>
        <time>2013-10-13T10:19:54Z</time>
      </trkpt>
    </trkseg>
  </trk>
</gpx>